<?xml version="1.0" encoding="UTF-8" standalone="no" ?>
<gpx xmlns="http://www.topografix.com/GPX/1/1" xmlns:xsi="http://www.w3.org/2001/XMLSchema-instance" xsi:schemaLocation="http://www.topografix.com/GPX/1/1 http://www.topografix.com/GPX/1/1/gpx.xsd" version="1.1" creator="VisuGPX - https://www.visugpx.com">
  <metadata>
    <name>premiere sortie Audun</name>
    <desc><![CDATA[Sortie vtt sur le secteur d'Audun le Tiche. ]]></desc>
  </metadata>
  <trk>
    <name><![CDATA[premiere sortie GPSies.com]]></name>
    <trkseg>
      <trkpt lat="49.46815" lon="5.95448">
        <ele>304.87524</ele>
        <time>2010-01-01T00:00:00Z</time>
      </trkpt>
      <trkpt lat="49.46824" lon="5.95435">
        <ele>308.23986</ele>
        <time>2010-01-01T00:00:04Z</time>
      </trkpt>
      <trkpt lat="49.46867" lon="5.95416">
        <ele>308.23986</ele>
        <time>2010-01-01T00:00:22Z</time>
      </trkpt>
      <trkpt lat="49.46918" lon="5.95386">
        <ele>309.68188</ele>
        <time>2010-01-01T00:00:44Z</time>
      </trkpt>
      <trkpt lat="49.46978" lon="5.95343">
        <ele>310.64306</ele>
        <time>2010-01-01T00:01:11Z</time>
      </trkpt>
      <trkpt lat="49.47041" lon="5.9532">
        <ele>312.0852</ele>
        <time>2010-01-01T00:01:36Z</time>
      </trkpt>
      <trkpt lat="49.47045" lon="5.95317">
        <ele>312.0852</ele>
        <time>2010-01-01T00:01:38Z</time>
      </trkpt>
      <trkpt lat="49.47094" lon="5.95313">
        <ele>312.56579</ele>
        <time>2010-01-01T00:01:58Z</time>
      </trkpt>
      <trkpt lat="49.47105" lon="5.95311">
        <ele>312.56579</ele>
        <time>2010-01-01T00:02:02Z</time>
      </trkpt>
      <trkpt lat="49.47129" lon="5.95307">
        <ele>313.0465</ele>
        <time>2010-01-01T00:02:12Z</time>
      </trkpt>
      <trkpt lat="49.47161" lon="5.95315">
        <ele>314.00781</ele>
        <time>2010-01-01T00:02:25Z</time>
      </trkpt>
      <trkpt lat="49.4721" lon="5.95345">
        <ele>311.60449</ele>
        <time>2010-01-01T00:02:46Z</time>
      </trkpt>
      <trkpt lat="49.47251" lon="5.95367">
        <ele>311.12377</ele>
        <time>2010-01-01T00:03:03Z</time>
      </trkpt>
      <trkpt lat="49.47289" lon="5.9539">
        <ele>310.64306</ele>
        <time>2010-01-01T00:03:20Z</time>
      </trkpt>
      <trkpt lat="49.47304" lon="5.95399">
        <ele>310.64306</ele>
        <time>2010-01-01T00:03:26Z</time>
      </trkpt>
      <trkpt lat="49.47343" lon="5.9544">
        <ele>310.64306</ele>
        <time>2010-01-01T00:03:45Z</time>
      </trkpt>
      <trkpt lat="49.4735" lon="5.95453">
        <ele>310.64306</ele>
        <time>2010-01-01T00:03:49Z</time>
      </trkpt>
      <trkpt lat="49.4736" lon="5.95465">
        <ele>310.16247</ele>
        <time>2010-01-01T00:03:55Z</time>
      </trkpt>
      <trkpt lat="49.47401" lon="5.95517">
        <ele>309.20117</ele>
        <time>2010-01-01T00:04:16Z</time>
      </trkpt>
      <trkpt lat="49.47448" lon="5.95549">
        <ele>308.72045</ele>
        <time>2010-01-01T00:04:37Z</time>
      </trkpt>
      <trkpt lat="49.47468" lon="5.95556">
        <ele>309.68188</ele>
        <time>2010-01-01T00:04:45Z</time>
      </trkpt>
      <trkpt lat="49.47478" lon="5.95545">
        <ele>309.68188</ele>
        <time>2010-01-01T00:04:50Z</time>
      </trkpt>
      <trkpt lat="49.47485" lon="5.95532">
        <ele>310.16247</ele>
        <time>2010-01-01T00:04:54Z</time>
      </trkpt>
      <trkpt lat="49.47489" lon="5.95498">
        <ele>309.68188</ele>
        <time>2010-01-01T00:05:03Z</time>
      </trkpt>
      <trkpt lat="49.47483" lon="5.95459">
        <ele>310.64306</ele>
        <time>2010-01-01T00:05:13Z</time>
      </trkpt>
      <trkpt lat="49.47476" lon="5.95435">
        <ele>310.16247</ele>
        <time>2010-01-01T00:05:20Z</time>
      </trkpt>
      <trkpt lat="49.47485" lon="5.95407">
        <ele>309.68188</ele>
        <time>2010-01-01T00:05:28Z</time>
      </trkpt>
      <trkpt lat="49.47489" lon="5.95405">
        <ele>309.68188</ele>
        <time>2010-01-01T00:05:30Z</time>
      </trkpt>
      <trkpt lat="49.47495" lon="5.95399">
        <ele>310.16247</ele>
        <time>2010-01-01T00:05:33Z</time>
      </trkpt>
      <trkpt lat="49.4751" lon="5.95371">
        <ele>309.68188</ele>
        <time>2010-01-01T00:05:42Z</time>
      </trkpt>
      <trkpt lat="49.47523" lon="5.95315">
        <ele>308.23986</ele>
        <time>2010-01-01T00:05:58Z</time>
      </trkpt>
      <trkpt lat="49.47526" lon="5.953">
        <ele>308.23986</ele>
        <time>2010-01-01T00:06:02Z</time>
      </trkpt>
      <trkpt lat="49.47528" lon="5.95274">
        <ele>308.72045</ele>
        <time>2010-01-01T00:06:09Z</time>
      </trkpt>
      <trkpt lat="49.47543" lon="5.95255">
        <ele>308.23986</ele>
        <time>2010-01-01T00:06:16Z</time>
      </trkpt>
      <trkpt lat="49.47547" lon="5.95236">
        <ele>308.23986</ele>
        <time>2010-01-01T00:06:22Z</time>
      </trkpt>
      <trkpt lat="49.47547" lon="5.95223">
        <ele>308.72045</ele>
        <time>2010-01-01T00:06:25Z</time>
      </trkpt>
      <trkpt lat="49.47551" lon="5.95189">
        <ele>309.20117</ele>
        <time>2010-01-01T00:06:34Z</time>
      </trkpt>
      <trkpt lat="49.47558" lon="5.95161">
        <ele>308.72045</ele>
        <time>2010-01-01T00:06:42Z</time>
      </trkpt>
      <trkpt lat="49.47562" lon="5.9509">
        <ele>308.72045</ele>
        <time>2010-01-01T00:07:00Z</time>
      </trkpt>
      <trkpt lat="49.47573" lon="5.95004">
        <ele>310.64306</ele>
        <time>2010-01-01T00:07:23Z</time>
      </trkpt>
      <trkpt lat="49.47588" lon="5.94929">
        <ele>311.60449</ele>
        <time>2010-01-01T00:07:43Z</time>
      </trkpt>
      <trkpt lat="49.47592" lon="5.9491">
        <ele>312.0852</ele>
        <time>2010-01-01T00:07:49Z</time>
      </trkpt>
      <trkpt lat="49.47607" lon="5.94895">
        <ele>312.0852</ele>
        <time>2010-01-01T00:07:56Z</time>
      </trkpt>
      <trkpt lat="49.47624" lon="5.94882">
        <ele>310.64306</ele>
        <time>2010-01-01T00:08:04Z</time>
      </trkpt>
      <trkpt lat="49.47633" lon="5.94869">
        <ele>310.16247</ele>
        <time>2010-01-01T00:08:08Z</time>
      </trkpt>
      <trkpt lat="49.47639" lon="5.94856">
        <ele>309.68188</ele>
        <time>2010-01-01T00:08:13Z</time>
      </trkpt>
      <trkpt lat="49.47644" lon="5.94845">
        <ele>309.20117</ele>
        <time>2010-01-01T00:08:16Z</time>
      </trkpt>
      <trkpt lat="49.47663" lon="5.94813">
        <ele>307.27856</ele>
        <time>2010-01-01T00:08:27Z</time>
      </trkpt>
      <trkpt lat="49.47686" lon="5.94785">
        <ele>306.79785</ele>
        <time>2010-01-01T00:08:39Z</time>
      </trkpt>
      <trkpt lat="49.4771" lon="5.94753">
        <ele>310.16247</ele>
        <time>2010-01-01T00:08:52Z</time>
      </trkpt>
      <trkpt lat="49.47736" lon="5.94738">
        <ele>315.44982</ele>
        <time>2010-01-01T00:09:03Z</time>
      </trkpt>
      <trkpt lat="49.47751" lon="5.94736">
        <ele>314.4884</ele>
        <time>2010-01-01T00:09:09Z</time>
      </trkpt>
      <trkpt lat="49.47772" lon="5.94719">
        <ele>314.96911</ele>
        <time>2010-01-01T00:09:19Z</time>
      </trkpt>
      <trkpt lat="49.47789" lon="5.94717">
        <ele>313.0465</ele>
        <time>2010-01-01T00:09:25Z</time>
      </trkpt>
      <trkpt lat="49.47841" lon="5.94725">
        <ele>316.41101</ele>
        <time>2010-01-01T00:09:46Z</time>
      </trkpt>
      <trkpt lat="49.47884" lon="5.94727">
        <ele>322.17895</ele>
        <time>2010-01-01T00:10:03Z</time>
      </trkpt>
      <trkpt lat="49.47912" lon="5.94734">
        <ele>321.21777</ele>
        <time>2010-01-01T00:10:15Z</time>
      </trkpt>
      <trkpt lat="49.47959" lon="5.94757">
        <ele>324.58227</ele>
        <time>2010-01-01T00:10:35Z</time>
      </trkpt>
      <trkpt lat="49.47974" lon="5.9477">
        <ele>325.06298</ele>
        <time>2010-01-01T00:10:41Z</time>
      </trkpt>
      <trkpt lat="49.4798" lon="5.94774">
        <ele>326.02416</ele>
        <time>2010-01-01T00:10:44Z</time>
      </trkpt>
      <trkpt lat="49.47995" lon="5.9479">
        <ele>328.42761</ele>
        <time>2010-01-01T00:10:51Z</time>
      </trkpt>
      <trkpt lat="49.48004" lon="5.94796">
        <ele>328.42761</ele>
        <time>2010-01-01T00:10:55Z</time>
      </trkpt>
      <trkpt lat="49.48019" lon="5.94809">
        <ele>330.35021</ele>
        <time>2010-01-01T00:11:02Z</time>
      </trkpt>
      <trkpt lat="49.48028" lon="5.94815">
        <ele>331.79211</ele>
        <time>2010-01-01T00:11:06Z</time>
      </trkpt>
      <trkpt lat="49.48043" lon="5.94832">
        <ele>333.23413</ele>
        <time>2010-01-01T00:11:13Z</time>
      </trkpt>
      <trkpt lat="49.48058" lon="5.94854">
        <ele>335.15673</ele>
        <time>2010-01-01T00:11:22Z</time>
      </trkpt>
      <trkpt lat="49.48071" lon="5.94875">
        <ele>337.07946</ele>
        <time>2010-01-01T00:11:29Z</time>
      </trkpt>
      <trkpt lat="49.48083" lon="5.94895">
        <ele>339.00207</ele>
        <time>2010-01-01T00:11:36Z</time>
      </trkpt>
      <trkpt lat="49.48101" lon="5.94929">
        <ele>341.40527</ele>
        <time>2010-01-01T00:11:48Z</time>
      </trkpt>
      <trkpt lat="49.48105" lon="5.94929">
        <ele>341.40527</ele>
        <time>2010-01-01T00:11:49Z</time>
      </trkpt>
      <trkpt lat="49.48105" lon="5.94918">
        <ele>342.36669</ele>
        <time>2010-01-01T00:11:52Z</time>
      </trkpt>
      <trkpt lat="49.48105" lon="5.94914">
        <ele>342.84729</ele>
        <time>2010-01-01T00:11:53Z</time>
      </trkpt>
      <trkpt lat="49.48094" lon="5.94875">
        <ele>346.21203</ele>
        <time>2010-01-01T00:12:04Z</time>
      </trkpt>
      <trkpt lat="49.48094" lon="5.94843">
        <ele>348.61523</ele>
        <time>2010-01-01T00:12:13Z</time>
      </trkpt>
      <trkpt lat="49.48109" lon="5.94807">
        <ele>347.17321</ele>
        <time>2010-01-01T00:12:24Z</time>
      </trkpt>
      <trkpt lat="49.48139" lon="5.94755">
        <ele>352.46057</ele>
        <time>2010-01-01T00:12:42Z</time>
      </trkpt>
      <trkpt lat="49.48167" lon="5.94717">
        <ele>349.09582</ele>
        <time>2010-01-01T00:12:57Z</time>
      </trkpt>
      <trkpt lat="49.48186" lon="5.94682">
        <ele>352.46057</ele>
        <time>2010-01-01T00:13:09Z</time>
      </trkpt>
      <trkpt lat="49.48199" lon="5.9465">
        <ele>355.82519</ele>
        <time>2010-01-01T00:13:19Z</time>
      </trkpt>
      <trkpt lat="49.48208" lon="5.94614">
        <ele>359.18969</ele>
        <time>2010-01-01T00:13:29Z</time>
      </trkpt>
      <trkpt lat="49.48212" lon="5.94579">
        <ele>361.11242</ele>
        <time>2010-01-01T00:13:38Z</time>
      </trkpt>
      <trkpt lat="49.48219" lon="5.94534">
        <ele>363.99633</ele>
        <time>2010-01-01T00:13:50Z</time>
      </trkpt>
      <trkpt lat="49.48227" lon="5.94504">
        <ele>365.91894</ele>
        <time>2010-01-01T00:13:58Z</time>
      </trkpt>
      <trkpt lat="49.48244" lon="5.94474">
        <ele>370.24487</ele>
        <time>2010-01-01T00:14:09Z</time>
      </trkpt>
      <trkpt lat="49.48261" lon="5.94457">
        <ele>372.16748</ele>
        <time>2010-01-01T00:14:17Z</time>
      </trkpt>
      <trkpt lat="49.48279" lon="5.94433">
        <ele>373.60949</ele>
        <time>2010-01-01T00:14:26Z</time>
      </trkpt>
      <trkpt lat="49.48298" lon="5.94408">
        <ele>373.60949</ele>
        <time>2010-01-01T00:14:36Z</time>
      </trkpt>
      <trkpt lat="49.48315" lon="5.94378">
        <ele>373.1289</ele>
        <time>2010-01-01T00:14:47Z</time>
      </trkpt>
      <trkpt lat="49.48332" lon="5.94332">
        <ele>373.60949</ele>
        <time>2010-01-01T00:15:00Z</time>
      </trkpt>
      <trkpt lat="49.48341" lon="5.94298">
        <ele>374.09008</ele>
        <time>2010-01-01T00:15:10Z</time>
      </trkpt>
      <trkpt lat="49.48358" lon="5.94242">
        <ele>375.05151</ele>
        <time>2010-01-01T00:15:26Z</time>
      </trkpt>
      <trkpt lat="49.48377" lon="5.9418">
        <ele>376.01281</ele>
        <time>2010-01-01T00:15:44Z</time>
      </trkpt>
      <trkpt lat="49.48388" lon="5.94148">
        <ele>377.45483</ele>
        <time>2010-01-01T00:15:53Z</time>
      </trkpt>
      <trkpt lat="49.48399" lon="5.94116">
        <ele>378.41613</ele>
        <time>2010-01-01T00:16:03Z</time>
      </trkpt>
      <trkpt lat="49.48418" lon="5.94069">
        <ele>378.89685</ele>
        <time>2010-01-01T00:16:17Z</time>
      </trkpt>
      <trkpt lat="49.48433" lon="5.94028">
        <ele>379.85803</ele>
        <time>2010-01-01T00:16:29Z</time>
      </trkpt>
      <trkpt lat="49.48446" lon="5.94004">
        <ele>379.85803</ele>
        <time>2010-01-01T00:16:37Z</time>
      </trkpt>
      <trkpt lat="49.48455" lon="5.93991">
        <ele>379.85803</ele>
        <time>2010-01-01T00:16:42Z</time>
      </trkpt>
      <trkpt lat="49.4847" lon="5.93942">
        <ele>378.89685</ele>
        <time>2010-01-01T00:16:56Z</time>
      </trkpt>
      <trkpt lat="49.48502" lon="5.93867">
        <ele>377.45483</ele>
        <time>2010-01-01T00:17:20Z</time>
      </trkpt>
      <trkpt lat="49.48506" lon="5.93852">
        <ele>376.97424</ele>
        <time>2010-01-01T00:17:24Z</time>
      </trkpt>
      <trkpt lat="49.48515" lon="5.93824">
        <ele>376.01281</ele>
        <time>2010-01-01T00:17:32Z</time>
      </trkpt>
      <trkpt lat="49.48517" lon="5.93809">
        <ele>375.5321</ele>
        <time>2010-01-01T00:17:36Z</time>
      </trkpt>
      <trkpt lat="49.48478" lon="5.93637">
        <ele>375.5321</ele>
        <time>2010-01-01T00:18:23Z</time>
      </trkpt>
      <trkpt lat="49.48476" lon="5.93618">
        <ele>374.09008</ele>
        <time>2010-01-01T00:18:28Z</time>
      </trkpt>
      <trkpt lat="49.48457" lon="5.93549">
        <ele>375.05151</ele>
        <time>2010-01-01T00:18:48Z</time>
      </trkpt>
      <trkpt lat="49.48448" lon="5.93485">
        <ele>376.49353</ele>
        <time>2010-01-01T00:19:05Z</time>
      </trkpt>
      <trkpt lat="49.4848" lon="5.93418">
        <ele>372.16748</ele>
        <time>2010-01-01T00:19:26Z</time>
      </trkpt>
      <trkpt lat="49.48498" lon="5.93352">
        <ele>369.76428</ele>
        <time>2010-01-01T00:19:45Z</time>
      </trkpt>
      <trkpt lat="49.48508" lon="5.93307">
        <ele>369.28369</ele>
        <time>2010-01-01T00:19:58Z</time>
      </trkpt>
      <trkpt lat="49.48519" lon="5.933">
        <ele>370.72558</ele>
        <time>2010-01-01T00:20:02Z</time>
      </trkpt>
      <trkpt lat="49.48543" lon="5.93283">
        <ele>371.20629</ele>
        <time>2010-01-01T00:20:13Z</time>
      </trkpt>
      <trkpt lat="49.48558" lon="5.93268">
        <ele>371.20629</ele>
        <time>2010-01-01T00:20:20Z</time>
      </trkpt>
      <trkpt lat="49.48564" lon="5.9326">
        <ele>371.20629</ele>
        <time>2010-01-01T00:20:23Z</time>
      </trkpt>
      <trkpt lat="49.48592" lon="5.93172">
        <ele>371.68688</ele>
        <time>2010-01-01T00:20:49Z</time>
      </trkpt>
      <trkpt lat="49.4859" lon="5.93159">
        <ele>370.72558</ele>
        <time>2010-01-01T00:20:52Z</time>
      </trkpt>
      <trkpt lat="49.4859" lon="5.93165">
        <ele>368.32226</ele>
        <time>2010-01-01T00:20:54Z</time>
      </trkpt>
      <trkpt lat="49.48594" lon="5.93169">
        <ele>372.16748</ele>
        <time>2010-01-01T00:20:56Z</time>
      </trkpt>
      <trkpt lat="49.48601" lon="5.93144">
        <ele>369.28369</ele>
        <time>2010-01-01T00:21:03Z</time>
      </trkpt>
      <trkpt lat="49.48603" lon="5.93139">
        <ele>370.72558</ele>
        <time>2010-01-01T00:21:04Z</time>
      </trkpt>
      <trkpt lat="49.48611" lon="5.9315">
        <ele>371.68688</ele>
        <time>2010-01-01T00:21:09Z</time>
      </trkpt>
      <trkpt lat="49.48616" lon="5.93165">
        <ele>369.28369</ele>
        <time>2010-01-01T00:21:13Z</time>
      </trkpt>
      <trkpt lat="49.48648" lon="5.93146">
        <ele>366.88024</ele>
        <time>2010-01-01T00:21:27Z</time>
      </trkpt>
      <trkpt lat="49.48648" lon="5.93127">
        <ele>366.88024</ele>
        <time>2010-01-01T00:21:32Z</time>
      </trkpt>
      <trkpt lat="49.48646" lon="5.9312">
        <ele>366.39953</ele>
        <time>2010-01-01T00:21:34Z</time>
      </trkpt>
      <trkpt lat="49.48641" lon="5.93114">
        <ele>365.43835</ele>
        <time>2010-01-01T00:21:36Z</time>
      </trkpt>
      <trkpt lat="49.48643" lon="5.93105">
        <ele>364.95764</ele>
        <time>2010-01-01T00:21:39Z</time>
      </trkpt>
      <trkpt lat="49.48641" lon="5.93062">
        <ele>363.99633</ele>
        <time>2010-01-01T00:21:50Z</time>
      </trkpt>
      <trkpt lat="49.48633" lon="5.93045">
        <ele>363.99633</ele>
        <time>2010-01-01T00:21:55Z</time>
      </trkpt>
      <trkpt lat="49.48628" lon="5.93032">
        <ele>363.99633</ele>
        <time>2010-01-01T00:21:59Z</time>
      </trkpt>
      <trkpt lat="49.48616" lon="5.93011">
        <ele>362.55432</ele>
        <time>2010-01-01T00:22:07Z</time>
      </trkpt>
      <trkpt lat="49.48603" lon="5.92974">
        <ele>362.55432</ele>
        <time>2010-01-01T00:22:18Z</time>
      </trkpt>
      <trkpt lat="49.48594" lon="5.9291">
        <ele>362.07373</ele>
        <time>2010-01-01T00:22:35Z</time>
      </trkpt>
      <trkpt lat="49.48618" lon="5.92848">
        <ele>363.51574</ele>
        <time>2010-01-01T00:22:53Z</time>
      </trkpt>
      <trkpt lat="49.48641" lon="5.92755">
        <ele>358.70898</ele>
        <time>2010-01-01T00:23:19Z</time>
      </trkpt>
      <trkpt lat="49.48641" lon="5.92742">
        <ele>358.70898</ele>
        <time>2010-01-01T00:23:23Z</time>
      </trkpt>
      <trkpt lat="49.48641" lon="5.9273">
        <ele>357.26708</ele>
        <time>2010-01-01T00:23:26Z</time>
      </trkpt>
      <trkpt lat="49.48646" lon="5.92727">
        <ele>359.67041</ele>
        <time>2010-01-01T00:23:28Z</time>
      </trkpt>
      <trkpt lat="49.48654" lon="5.92708">
        <ele>357.7478</ele>
        <time>2010-01-01T00:23:34Z</time>
      </trkpt>
      <trkpt lat="49.48656" lon="5.92685">
        <ele>360.63171</ele>
        <time>2010-01-01T00:23:40Z</time>
      </trkpt>
      <trkpt lat="49.48665" lon="5.92665">
        <ele>358.22839</ele>
        <time>2010-01-01T00:23:46Z</time>
      </trkpt>
      <trkpt lat="49.48671" lon="5.92637">
        <ele>357.26708</ele>
        <time>2010-01-01T00:23:54Z</time>
      </trkpt>
      <trkpt lat="49.4868" lon="5.92594">
        <ele>354.86376</ele>
        <time>2010-01-01T00:24:05Z</time>
      </trkpt>
      <trkpt lat="49.4871" lon="5.92515">
        <ele>352.94116</ele>
        <time>2010-01-01T00:24:29Z</time>
      </trkpt>
      <trkpt lat="49.48757" lon="5.92431">
        <ele>351.01843</ele>
        <time>2010-01-01T00:24:58Z</time>
      </trkpt>
      <trkpt lat="49.48768" lon="5.92401">
        <ele>349.57653</ele>
        <time>2010-01-01T00:25:07Z</time>
      </trkpt>
      <trkpt lat="49.48779" lon="5.9238">
        <ele>349.57653</ele>
        <time>2010-01-01T00:25:14Z</time>
      </trkpt>
      <trkpt lat="49.488" lon="5.92313">
        <ele>347.65393</ele>
        <time>2010-01-01T00:25:33Z</time>
      </trkpt>
      <trkpt lat="49.48854" lon="5.92193">
        <ele>346.69262</ele>
        <time>2010-01-01T00:26:11Z</time>
      </trkpt>
      <trkpt lat="49.48903" lon="5.92118">
        <ele>346.21203</ele>
        <time>2010-01-01T00:26:39Z</time>
      </trkpt>
      <trkpt lat="49.48944" lon="5.92069">
        <ele>345.73132</ele>
        <time>2010-01-01T00:27:00Z</time>
      </trkpt>
      <trkpt lat="49.48982" lon="5.9209">
        <ele>346.21203</ele>
        <time>2010-01-01T00:27:16Z</time>
      </trkpt>
      <trkpt lat="49.48985" lon="5.92092">
        <ele>346.21203</ele>
        <time>2010-01-01T00:27:17Z</time>
      </trkpt>
      <trkpt lat="49.49" lon="5.92182">
        <ele>343.32788</ele>
        <time>2010-01-01T00:27:42Z</time>
      </trkpt>
      <trkpt lat="49.49015" lon="5.9218">
        <ele>341.88598</ele>
        <time>2010-01-01T00:27:48Z</time>
      </trkpt>
      <trkpt lat="49.4904" lon="5.92163">
        <ele>339.96337</ele>
        <time>2010-01-01T00:27:59Z</time>
      </trkpt>
      <trkpt lat="49.49066" lon="5.92137">
        <ele>337.56005</ele>
        <time>2010-01-01T00:28:11Z</time>
      </trkpt>
      <trkpt lat="49.49092" lon="5.92084">
        <ele>336.59887</ele>
        <time>2010-01-01T00:28:28Z</time>
      </trkpt>
      <trkpt lat="49.49124" lon="5.9203">
        <ele>335.15673</ele>
        <time>2010-01-01T00:28:47Z</time>
      </trkpt>
      <trkpt lat="49.49163" lon="5.91961">
        <ele>332.75354</ele>
        <time>2010-01-01T00:29:11Z</time>
      </trkpt>
      <trkpt lat="49.49188" lon="5.91921">
        <ele>333.23413</ele>
        <time>2010-01-01T00:29:26Z</time>
      </trkpt>
      <trkpt lat="49.49223" lon="5.91882">
        <ele>336.59887</ele>
        <time>2010-01-01T00:29:43Z</time>
      </trkpt>
      <trkpt lat="49.49227" lon="5.9188">
        <ele>336.59887</ele>
        <time>2010-01-01T00:29:45Z</time>
      </trkpt>
      <trkpt lat="49.49255" lon="5.91835">
        <ele>339.00207</ele>
        <time>2010-01-01T00:30:01Z</time>
      </trkpt>
      <trkpt lat="49.49279" lon="5.91803">
        <ele>340.44409</ele>
        <time>2010-01-01T00:30:14Z</time>
      </trkpt>
      <trkpt lat="49.49298" lon="5.91762">
        <ele>339.48266</ele>
        <time>2010-01-01T00:30:27Z</time>
      </trkpt>
      <trkpt lat="49.49322" lon="5.91712">
        <ele>341.40527</ele>
        <time>2010-01-01T00:30:43Z</time>
      </trkpt>
      <trkpt lat="49.49341" lon="5.91652">
        <ele>346.21203</ele>
        <time>2010-01-01T00:31:00Z</time>
      </trkpt>
      <trkpt lat="49.49352" lon="5.91592">
        <ele>347.65393</ele>
        <time>2010-01-01T00:31:16Z</time>
      </trkpt>
      <trkpt lat="49.49356" lon="5.91549">
        <ele>348.13464</ele>
        <time>2010-01-01T00:31:27Z</time>
      </trkpt>
      <trkpt lat="49.49352" lon="5.91489">
        <ele>348.61523</ele>
        <time>2010-01-01T00:31:43Z</time>
      </trkpt>
      <trkpt lat="49.49343" lon="5.91444">
        <ele>347.65393</ele>
        <time>2010-01-01T00:31:55Z</time>
      </trkpt>
      <trkpt lat="49.49322" lon="5.91401">
        <ele>347.17321</ele>
        <time>2010-01-01T00:32:09Z</time>
      </trkpt>
      <trkpt lat="49.49291" lon="5.91361">
        <ele>348.61523</ele>
        <time>2010-01-01T00:32:26Z</time>
      </trkpt>
      <trkpt lat="49.49309" lon="5.91391">
        <ele>349.57653</ele>
        <time>2010-01-01T00:32:36Z</time>
      </trkpt>
      <trkpt lat="49.49311" lon="5.91386">
        <ele>352.46057</ele>
        <time>2010-01-01T00:32:37Z</time>
      </trkpt>
      <trkpt lat="49.49315" lon="5.91378">
        <ele>351.97985</ele>
        <time>2010-01-01T00:32:40Z</time>
      </trkpt>
      <trkpt lat="49.49317" lon="5.91373">
        <ele>352.46057</ele>
        <time>2010-01-01T00:32:42Z</time>
      </trkpt>
      <trkpt lat="49.49319" lon="5.91367">
        <ele>353.42187</ele>
        <time>2010-01-01T00:32:43Z</time>
      </trkpt>
      <trkpt lat="49.49319" lon="5.9135">
        <ele>353.42187</ele>
        <time>2010-01-01T00:32:48Z</time>
      </trkpt>
      <trkpt lat="49.49322" lon="5.91296">
        <ele>353.90258</ele>
        <time>2010-01-01T00:33:02Z</time>
      </trkpt>
      <trkpt lat="49.49328" lon="5.91243">
        <ele>357.26708</ele>
        <time>2010-01-01T00:33:16Z</time>
      </trkpt>
      <trkpt lat="49.49337" lon="5.91191">
        <ele>357.7478</ele>
        <time>2010-01-01T00:33:30Z</time>
      </trkpt>
      <trkpt lat="49.49343" lon="5.91176">
        <ele>358.22839</ele>
        <time>2010-01-01T00:33:35Z</time>
      </trkpt>
      <trkpt lat="49.49362" lon="5.91131">
        <ele>358.22839</ele>
        <time>2010-01-01T00:33:49Z</time>
      </trkpt>
      <trkpt lat="49.49386" lon="5.91079">
        <ele>358.70898</ele>
        <time>2010-01-01T00:34:05Z</time>
      </trkpt>
      <trkpt lat="49.49412" lon="5.91026">
        <ele>360.63171</ele>
        <time>2010-01-01T00:34:22Z</time>
      </trkpt>
      <trkpt lat="49.49416" lon="5.91026">
        <ele>360.63171</ele>
        <time>2010-01-01T00:34:24Z</time>
      </trkpt>
      <trkpt lat="49.49418" lon="5.91026">
        <ele>360.63171</ele>
        <time>2010-01-01T00:34:25Z</time>
      </trkpt>
      <trkpt lat="49.49427" lon="5.91009">
        <ele>359.18969</ele>
        <time>2010-01-01T00:34:31Z</time>
      </trkpt>
      <trkpt lat="49.49452" lon="5.9097">
        <ele>357.26708</ele>
        <time>2010-01-01T00:34:45Z</time>
      </trkpt>
      <trkpt lat="49.49487" lon="5.90944">
        <ele>357.26708</ele>
        <time>2010-01-01T00:35:00Z</time>
      </trkpt>
      <trkpt lat="49.49525" lon="5.9094">
        <ele>356.78637</ele>
        <time>2010-01-01T00:35:16Z</time>
      </trkpt>
      <trkpt lat="49.49558" lon="5.90949">
        <ele>357.7478</ele>
        <time>2010-01-01T00:35:29Z</time>
      </trkpt>
      <trkpt lat="49.49585" lon="5.90972">
        <ele>358.70898</ele>
        <time>2010-01-01T00:35:42Z</time>
      </trkpt>
      <trkpt lat="49.49618" lon="5.91">
        <ele>360.15112</ele>
        <time>2010-01-01T00:35:56Z</time>
      </trkpt>
      <trkpt lat="49.49628" lon="5.91011">
        <ele>361.11242</ele>
        <time>2010-01-01T00:36:01Z</time>
      </trkpt>
      <trkpt lat="49.49648" lon="5.91015">
        <ele>364.95764</ele>
        <time>2010-01-01T00:36:09Z</time>
      </trkpt>
      <trkpt lat="49.49658" lon="5.91028">
        <ele>365.43835</ele>
        <time>2010-01-01T00:36:15Z</time>
      </trkpt>
      <trkpt lat="49.49676" lon="5.91058">
        <ele>366.88024</ele>
        <time>2010-01-01T00:36:25Z</time>
      </trkpt>
      <trkpt lat="49.49691" lon="5.91062">
        <ele>367.36096</ele>
        <time>2010-01-01T00:36:31Z</time>
      </trkpt>
      <trkpt lat="49.49691" lon="5.91058">
        <ele>367.84155</ele>
        <time>2010-01-01T00:36:32Z</time>
      </trkpt>
      <trkpt lat="49.49695" lon="5.91052">
        <ele>368.80297</ele>
        <time>2010-01-01T00:36:35Z</time>
      </trkpt>
      <trkpt lat="49.49699" lon="5.91043">
        <ele>370.72558</ele>
        <time>2010-01-01T00:36:38Z</time>
      </trkpt>
      <trkpt lat="49.49708" lon="5.9103">
        <ele>372.16748</ele>
        <time>2010-01-01T00:36:42Z</time>
      </trkpt>
      <trkpt lat="49.49712" lon="5.91024">
        <ele>376.01281</ele>
        <time>2010-01-01T00:36:45Z</time>
      </trkpt>
      <trkpt lat="49.49716" lon="5.91017">
        <ele>377.45483</ele>
        <time>2010-01-01T00:36:47Z</time>
      </trkpt>
      <trkpt lat="49.49718" lon="5.91007">
        <ele>377.93542</ele>
        <time>2010-01-01T00:36:50Z</time>
      </trkpt>
      <trkpt lat="49.4971" lon="5.90998">
        <ele>378.89685</ele>
        <time>2010-01-01T00:36:54Z</time>
      </trkpt>
      <trkpt lat="49.4971" lon="5.91">
        <ele>380.33874</ele>
        <time>2010-01-01T00:36:55Z</time>
      </trkpt>
      <trkpt lat="49.4971" lon="5.91002">
        <ele>376.49353</ele>
        <time>2010-01-01T00:36:55Z</time>
      </trkpt>
      <trkpt lat="49.49708" lon="5.91002">
        <ele>376.49353</ele>
        <time>2010-01-01T00:36:56Z</time>
      </trkpt>
      <trkpt lat="49.4971" lon="5.91002">
        <ele>383.22265</ele>
        <time>2010-01-01T00:36:57Z</time>
      </trkpt>
      <trkpt lat="49.4971" lon="5.91004">
        <ele>376.49353</ele>
        <time>2010-01-01T00:36:58Z</time>
      </trkpt>
      <trkpt lat="49.4971" lon="5.91002">
        <ele>377.93542</ele>
        <time>2010-01-01T00:36:58Z</time>
      </trkpt>
      <trkpt lat="49.4971" lon="5.90998">
        <ele>378.89685</ele>
        <time>2010-01-01T00:36:59Z</time>
      </trkpt>
      <trkpt lat="49.4971" lon="5.90996">
        <ele>379.85803</ele>
        <time>2010-01-01T00:37:00Z</time>
      </trkpt>
      <trkpt lat="49.49699" lon="5.90979">
        <ele>391.39379</ele>
        <time>2010-01-01T00:37:06Z</time>
      </trkpt>
      <trkpt lat="49.49697" lon="5.90976">
        <ele>391.39379</ele>
        <time>2010-01-01T00:37:07Z</time>
      </trkpt>
      <trkpt lat="49.49678" lon="5.90946">
        <ele>388.51</ele>
        <time>2010-01-01T00:37:18Z</time>
      </trkpt>
      <trkpt lat="49.49626" lon="5.90884">
        <ele>385.14538</ele>
        <time>2010-01-01T00:37:44Z</time>
      </trkpt>
      <trkpt lat="49.4959" lon="5.90822">
        <ele>385.62597</ele>
        <time>2010-01-01T00:38:06Z</time>
      </trkpt>
      <trkpt lat="49.49558" lon="5.90749">
        <ele>386.5874</ele>
        <time>2010-01-01T00:38:29Z</time>
      </trkpt>
      <trkpt lat="49.49538" lon="5.90689">
        <ele>384.66479</ele>
        <time>2010-01-01T00:38:46Z</time>
      </trkpt>
      <trkpt lat="49.4953" lon="5.90659">
        <ele>383.22265</ele>
        <time>2010-01-01T00:38:55Z</time>
      </trkpt>
      <trkpt lat="49.49523" lon="5.90631">
        <ele>387.06799</ele>
        <time>2010-01-01T00:39:03Z</time>
      </trkpt>
      <trkpt lat="49.49515" lon="5.9062">
        <ele>386.10668</ele>
        <time>2010-01-01T00:39:07Z</time>
      </trkpt>
      <trkpt lat="49.4951" lon="5.90616">
        <ele>385.62597</ele>
        <time>2010-01-01T00:39:09Z</time>
      </trkpt>
      <trkpt lat="49.4951" lon="5.90592">
        <ele>384.18408</ele>
        <time>2010-01-01T00:39:15Z</time>
      </trkpt>
      <trkpt lat="49.49523" lon="5.9058">
        <ele>385.14538</ele>
        <time>2010-01-01T00:39:21Z</time>
      </trkpt>
      <trkpt lat="49.4956" lon="5.90534">
        <ele>385.62597</ele>
        <time>2010-01-01T00:39:40Z</time>
      </trkpt>
      <trkpt lat="49.49575" lon="5.90496">
        <ele>384.66479</ele>
        <time>2010-01-01T00:39:52Z</time>
      </trkpt>
      <trkpt lat="49.49581" lon="5.90481">
        <ele>383.22265</ele>
        <time>2010-01-01T00:39:56Z</time>
      </trkpt>
      <trkpt lat="49.49581" lon="5.90474">
        <ele>380.33874</ele>
        <time>2010-01-01T00:39:58Z</time>
      </trkpt>
      <trkpt lat="49.49581" lon="5.90466">
        <ele>379.37744</ele>
        <time>2010-01-01T00:40:00Z</time>
      </trkpt>
      <trkpt lat="49.49588" lon="5.90444">
        <ele>378.41613</ele>
        <time>2010-01-01T00:40:06Z</time>
      </trkpt>
      <trkpt lat="49.49592" lon="5.90408">
        <ele>378.89685</ele>
        <time>2010-01-01T00:40:16Z</time>
      </trkpt>
      <trkpt lat="49.49609" lon="5.90397">
        <ele>379.37744</ele>
        <time>2010-01-01T00:40:24Z</time>
      </trkpt>
      <trkpt lat="49.49624" lon="5.90416">
        <ele>379.37744</ele>
        <time>2010-01-01T00:40:31Z</time>
      </trkpt>
      <trkpt lat="49.49628" lon="5.90419">
        <ele>380.33874</ele>
        <time>2010-01-01T00:40:33Z</time>
      </trkpt>
      <trkpt lat="49.49658" lon="5.90421">
        <ele>382.74206</ele>
        <time>2010-01-01T00:40:45Z</time>
      </trkpt>
      <trkpt lat="49.49701" lon="5.90423">
        <ele>382.26135</ele>
        <time>2010-01-01T00:41:02Z</time>
      </trkpt>
      <trkpt lat="49.49725" lon="5.90423">
        <ele>383.22265</ele>
        <time>2010-01-01T00:41:12Z</time>
      </trkpt>
      <trkpt lat="49.49736" lon="5.9041">
        <ele>382.74206</ele>
        <time>2010-01-01T00:41:17Z</time>
      </trkpt>
      <trkpt lat="49.49749" lon="5.90404">
        <ele>381.30004</ele>
        <time>2010-01-01T00:41:23Z</time>
      </trkpt>
      <trkpt lat="49.49768" lon="5.90423">
        <ele>380.33874</ele>
        <time>2010-01-01T00:41:32Z</time>
      </trkpt>
      <trkpt lat="49.49774" lon="5.90429">
        <ele>379.85803</ele>
        <time>2010-01-01T00:41:35Z</time>
      </trkpt>
      <trkpt lat="49.49794" lon="5.90457">
        <ele>380.33874</ele>
        <time>2010-01-01T00:41:46Z</time>
      </trkpt>
      <trkpt lat="49.49824" lon="5.90513">
        <ele>381.30004</ele>
        <time>2010-01-01T00:42:04Z</time>
      </trkpt>
      <trkpt lat="49.49856" lon="5.90612">
        <ele>385.62597</ele>
        <time>2010-01-01T00:42:33Z</time>
      </trkpt>
      <trkpt lat="49.49871" lon="5.90661">
        <ele>386.5874</ele>
        <time>2010-01-01T00:42:47Z</time>
      </trkpt>
      <trkpt lat="49.49888" lon="5.90713">
        <ele>387.54858</ele>
        <time>2010-01-01T00:43:02Z</time>
      </trkpt>
      <trkpt lat="49.49907" lon="5.90762">
        <ele>387.06799</ele>
        <time>2010-01-01T00:43:17Z</time>
      </trkpt>
      <trkpt lat="49.49933" lon="5.90794">
        <ele>387.54858</ele>
        <time>2010-01-01T00:43:31Z</time>
      </trkpt>
      <trkpt lat="49.49965" lon="5.90816">
        <ele>388.02929</ele>
        <time>2010-01-01T00:43:45Z</time>
      </trkpt>
      <trkpt lat="49.50008" lon="5.90826">
        <ele>387.54858</ele>
        <time>2010-01-01T00:44:02Z</time>
      </trkpt>
      <trkpt lat="49.50064" lon="5.90828">
        <ele>387.06799</ele>
        <time>2010-01-01T00:44:24Z</time>
      </trkpt>
      <trkpt lat="49.50111" lon="5.90828">
        <ele>387.06799</ele>
        <time>2010-01-01T00:44:43Z</time>
      </trkpt>
      <trkpt lat="49.5012" lon="5.90813">
        <ele>385.14538</ele>
        <time>2010-01-01T00:44:49Z</time>
      </trkpt>
      <trkpt lat="49.5012" lon="5.90794">
        <ele>388.02929</ele>
        <time>2010-01-01T00:44:54Z</time>
      </trkpt>
      <trkpt lat="49.50124" lon="5.9077">
        <ele>390.43261</ele>
        <time>2010-01-01T00:45:00Z</time>
      </trkpt>
      <trkpt lat="49.50107" lon="5.90762">
        <ele>389.9519</ele>
        <time>2010-01-01T00:45:07Z</time>
      </trkpt>
      <trkpt lat="49.50066" lon="5.9076">
        <ele>391.39379</ele>
        <time>2010-01-01T00:45:23Z</time>
      </trkpt>
      <trkpt lat="49.50021" lon="5.90751">
        <ele>388.51</ele>
        <time>2010-01-01T00:45:42Z</time>
      </trkpt>
      <trkpt lat="49.49995" lon="5.90734">
        <ele>388.9906</ele>
        <time>2010-01-01T00:45:53Z</time>
      </trkpt>
      <trkpt lat="49.49972" lon="5.907">
        <ele>392.83593</ele>
        <time>2010-01-01T00:46:06Z</time>
      </trkpt>
      <trkpt lat="49.49955" lon="5.90661">
        <ele>395.23913</ele>
        <time>2010-01-01T00:46:18Z</time>
      </trkpt>
      <trkpt lat="49.49939" lon="5.90629">
        <ele>392.35534</ele>
        <time>2010-01-01T00:46:28Z</time>
      </trkpt>
      <trkpt lat="49.49916" lon="5.90588">
        <ele>393.79724</ele>
        <time>2010-01-01T00:46:43Z</time>
      </trkpt>
      <trkpt lat="49.49901" lon="5.90541">
        <ele>393.31652</ele>
        <time>2010-01-01T00:46:56Z</time>
      </trkpt>
      <trkpt lat="49.49897" lon="5.90504">
        <ele>386.5874</ele>
        <time>2010-01-01T00:47:06Z</time>
      </trkpt>
      <trkpt lat="49.49875" lon="5.90481">
        <ele>386.5874</ele>
        <time>2010-01-01T00:47:16Z</time>
      </trkpt>
      <trkpt lat="49.49882" lon="5.90464">
        <ele>387.06799</ele>
        <time>2010-01-01T00:47:22Z</time>
      </trkpt>
      <trkpt lat="49.49897" lon="5.90464">
        <ele>388.02929</ele>
        <time>2010-01-01T00:47:28Z</time>
      </trkpt>
      <trkpt lat="49.49903" lon="5.90453">
        <ele>388.51</ele>
        <time>2010-01-01T00:47:31Z</time>
      </trkpt>
      <trkpt lat="49.49905" lon="5.90453">
        <ele>390.43261</ele>
        <time>2010-01-01T00:47:32Z</time>
      </trkpt>
      <trkpt lat="49.49909" lon="5.90455">
        <ele>391.87451</ele>
        <time>2010-01-01T00:47:34Z</time>
      </trkpt>
      <trkpt lat="49.49918" lon="5.90455">
        <ele>394.75854</ele>
        <time>2010-01-01T00:47:37Z</time>
      </trkpt>
      <trkpt lat="49.49922" lon="5.90453">
        <ele>397.16174</ele>
        <time>2010-01-01T00:47:39Z</time>
      </trkpt>
      <trkpt lat="49.49927" lon="5.90451">
        <ele>399.56506</ele>
        <time>2010-01-01T00:47:41Z</time>
      </trkpt>
      <trkpt lat="49.49929" lon="5.90446">
        <ele>400.04589</ele>
        <time>2010-01-01T00:47:42Z</time>
      </trkpt>
      <trkpt lat="49.49929" lon="5.90442">
        <ele>401.48779</ele>
        <time>2010-01-01T00:47:44Z</time>
      </trkpt>
      <trkpt lat="49.49924" lon="5.90425">
        <ele>399.08435</ele>
        <time>2010-01-01T00:47:48Z</time>
      </trkpt>
      <trkpt lat="49.49914" lon="5.90404">
        <ele>397.16174</ele>
        <time>2010-01-01T00:47:55Z</time>
      </trkpt>
      <trkpt lat="49.49909" lon="5.90371">
        <ele>397.16174</ele>
        <time>2010-01-01T00:48:04Z</time>
      </trkpt>
      <trkpt lat="49.49901" lon="5.90354">
        <ele>396.68115</ele>
        <time>2010-01-01T00:48:10Z</time>
      </trkpt>
      <trkpt lat="49.49879" lon="5.90337">
        <ele>398.60375</ele>
        <time>2010-01-01T00:48:19Z</time>
      </trkpt>
      <trkpt lat="49.4986" lon="5.90318">
        <ele>400.52648</ele>
        <time>2010-01-01T00:48:28Z</time>
      </trkpt>
      <trkpt lat="49.49852" lon="5.90298">
        <ele>398.60375</ele>
        <time>2010-01-01T00:48:35Z</time>
      </trkpt>
      <trkpt lat="49.49845" lon="5.90228">
        <ele>398.60375</ele>
        <time>2010-01-01T00:48:53Z</time>
      </trkpt>
      <trkpt lat="49.49834" lon="5.90133">
        <ele>396.68115</ele>
        <time>2010-01-01T00:49:18Z</time>
      </trkpt>
      <trkpt lat="49.49821" lon="5.90067">
        <ele>396.68115</ele>
        <time>2010-01-01T00:49:36Z</time>
      </trkpt>
      <trkpt lat="49.49813" lon="5.89998">
        <ele>401.00708</ele>
        <time>2010-01-01T00:49:54Z</time>
      </trkpt>
      <trkpt lat="49.49806" lon="5.89987">
        <ele>402.44909</ele>
        <time>2010-01-01T00:49:58Z</time>
      </trkpt>
      <trkpt lat="49.49798" lon="5.89968">
        <ele>402.92968</ele>
        <time>2010-01-01T00:50:04Z</time>
      </trkpt>
      <trkpt lat="49.49768" lon="5.89899">
        <ele>402.44909</ele>
        <time>2010-01-01T00:50:26Z</time>
      </trkpt>
      <trkpt lat="49.49746" lon="5.89833">
        <ele>398.12316</ele>
        <time>2010-01-01T00:50:45Z</time>
      </trkpt>
      <trkpt lat="49.49738" lon="5.89807">
        <ele>397.64245</ele>
        <time>2010-01-01T00:50:53Z</time>
      </trkpt>
      <trkpt lat="49.49736" lon="5.89756">
        <ele>395.23913</ele>
        <time>2010-01-01T00:51:06Z</time>
      </trkpt>
      <trkpt lat="49.49725" lon="5.89678">
        <ele>392.35534</ele>
        <time>2010-01-01T00:51:26Z</time>
      </trkpt>
      <trkpt lat="49.49729" lon="5.89599">
        <ele>390.43261</ele>
        <time>2010-01-01T00:51:47Z</time>
      </trkpt>
      <trkpt lat="49.49744" lon="5.89541">
        <ele>389.47119</ele>
        <time>2010-01-01T00:52:03Z</time>
      </trkpt>
      <trkpt lat="49.49749" lon="5.89513">
        <ele>388.02929</ele>
        <time>2010-01-01T00:52:11Z</time>
      </trkpt>
      <trkpt lat="49.49746" lon="5.89485">
        <ele>389.47119</ele>
        <time>2010-01-01T00:52:18Z</time>
      </trkpt>
      <trkpt lat="49.49749" lon="5.89462">
        <ele>388.9906</ele>
        <time>2010-01-01T00:52:24Z</time>
      </trkpt>
      <trkpt lat="49.49749" lon="5.89451">
        <ele>388.02929</ele>
        <time>2010-01-01T00:52:27Z</time>
      </trkpt>
      <trkpt lat="49.49749" lon="5.89382">
        <ele>387.54858</ele>
        <time>2010-01-01T00:52:45Z</time>
      </trkpt>
      <trkpt lat="49.4974" lon="5.89346">
        <ele>387.06799</ele>
        <time>2010-01-01T00:52:55Z</time>
      </trkpt>
      <trkpt lat="49.49736" lon="5.89314">
        <ele>387.06799</ele>
        <time>2010-01-01T00:53:04Z</time>
      </trkpt>
      <trkpt lat="49.49729" lon="5.89283">
        <ele>385.62597</ele>
        <time>2010-01-01T00:53:12Z</time>
      </trkpt>
      <trkpt lat="49.4971" lon="5.89232">
        <ele>383.70324</ele>
        <time>2010-01-01T00:53:27Z</time>
      </trkpt>
      <trkpt lat="49.49706" lon="5.89183">
        <ele>383.22265</ele>
        <time>2010-01-01T00:53:40Z</time>
      </trkpt>
      <trkpt lat="49.49718" lon="5.89125">
        <ele>384.18408</ele>
        <time>2010-01-01T00:53:56Z</time>
      </trkpt>
      <trkpt lat="49.49738" lon="5.89077">
        <ele>383.70324</ele>
        <time>2010-01-01T00:54:11Z</time>
      </trkpt>
      <trkpt lat="49.49753" lon="5.89056">
        <ele>385.14538</ele>
        <time>2010-01-01T00:54:19Z</time>
      </trkpt>
      <trkpt lat="49.49772" lon="5.89005">
        <ele>385.14538</ele>
        <time>2010-01-01T00:54:34Z</time>
      </trkpt>
      <trkpt lat="49.49779" lon="5.88979">
        <ele>386.5874</ele>
        <time>2010-01-01T00:54:42Z</time>
      </trkpt>
      <trkpt lat="49.49794" lon="5.88914">
        <ele>387.54858</ele>
        <time>2010-01-01T00:54:59Z</time>
      </trkpt>
      <trkpt lat="49.49821" lon="5.88852">
        <ele>385.14538</ele>
        <time>2010-01-01T00:55:19Z</time>
      </trkpt>
      <trkpt lat="49.49867" lon="5.88758">
        <ele>385.14538</ele>
        <time>2010-01-01T00:55:49Z</time>
      </trkpt>
      <trkpt lat="49.49879" lon="5.8873">
        <ele>384.66479</ele>
        <time>2010-01-01T00:55:58Z</time>
      </trkpt>
      <trkpt lat="49.49909" lon="5.887">
        <ele>384.18408</ele>
        <time>2010-01-01T00:56:13Z</time>
      </trkpt>
      <trkpt lat="49.49927" lon="5.88676">
        <ele>384.66479</ele>
        <time>2010-01-01T00:56:22Z</time>
      </trkpt>
      <trkpt lat="49.49944" lon="5.88644">
        <ele>385.62597</ele>
        <time>2010-01-01T00:56:33Z</time>
      </trkpt>
      <trkpt lat="49.49974" lon="5.8859">
        <ele>384.66479</ele>
        <time>2010-01-01T00:56:51Z</time>
      </trkpt>
      <trkpt lat="49.50021" lon="5.88494">
        <ele>384.18408</ele>
        <time>2010-01-01T00:57:23Z</time>
      </trkpt>
      <trkpt lat="49.50058" lon="5.88369">
        <ele>384.18408</ele>
        <time>2010-01-01T00:57:58Z</time>
      </trkpt>
      <trkpt lat="49.50055" lon="5.88363">
        <ele>385.14538</ele>
        <time>2010-01-01T00:58:00Z</time>
      </trkpt>
      <trkpt lat="49.50053" lon="5.88356">
        <ele>384.18408</ele>
        <time>2010-01-01T00:58:02Z</time>
      </trkpt>
      <trkpt lat="49.49937" lon="5.88412">
        <ele>384.18408</ele>
        <time>2010-01-01T00:58:50Z</time>
      </trkpt>
      <trkpt lat="49.49901" lon="5.88419">
        <ele>384.18408</ele>
        <time>2010-01-01T00:59:05Z</time>
      </trkpt>
      <trkpt lat="49.49897" lon="5.88419">
        <ele>384.18408</ele>
        <time>2010-01-01T00:59:07Z</time>
      </trkpt>
      <trkpt lat="49.49884" lon="5.88406">
        <ele>381.30004</ele>
        <time>2010-01-01T00:59:13Z</time>
      </trkpt>
      <trkpt lat="49.49871" lon="5.88399">
        <ele>378.41613</ele>
        <time>2010-01-01T00:59:18Z</time>
      </trkpt>
      <trkpt lat="49.49794" lon="5.88444">
        <ele>372.64819</ele>
        <time>2010-01-01T00:59:51Z</time>
      </trkpt>
      <trkpt lat="49.49781" lon="5.88468">
        <ele>369.28369</ele>
        <time>2010-01-01T00:59:59Z</time>
      </trkpt>
      <trkpt lat="49.49753" lon="5.88507">
        <ele>371.20629</ele>
        <time>2010-01-01T01:00:15Z</time>
      </trkpt>
      <trkpt lat="49.49734" lon="5.88558">
        <ele>367.84155</ele>
        <time>2010-01-01T01:00:30Z</time>
      </trkpt>
      <trkpt lat="49.49691" lon="5.88612">
        <ele>368.80297</ele>
        <time>2010-01-01T01:00:52Z</time>
      </trkpt>
      <trkpt lat="49.49656" lon="5.88638">
        <ele>372.16748</ele>
        <time>2010-01-01T01:01:07Z</time>
      </trkpt>
      <trkpt lat="49.49622" lon="5.88661">
        <ele>375.5321</ele>
        <time>2010-01-01T01:01:22Z</time>
      </trkpt>
      <trkpt lat="49.49579" lon="5.88696">
        <ele>372.64819</ele>
        <time>2010-01-01T01:01:42Z</time>
      </trkpt>
      <trkpt lat="49.49551" lon="5.88717">
        <ele>375.5321</ele>
        <time>2010-01-01T01:01:54Z</time>
      </trkpt>
      <trkpt lat="49.49521" lon="5.88741">
        <ele>378.41613</ele>
        <time>2010-01-01T01:02:08Z</time>
      </trkpt>
      <trkpt lat="49.49487" lon="5.8876">
        <ele>381.30004</ele>
        <time>2010-01-01T01:02:22Z</time>
      </trkpt>
      <trkpt lat="49.4947" lon="5.88771">
        <ele>382.74206</ele>
        <time>2010-01-01T01:02:30Z</time>
      </trkpt>
      <trkpt lat="49.49446" lon="5.88786">
        <ele>383.22265</ele>
        <time>2010-01-01T01:02:40Z</time>
      </trkpt>
      <trkpt lat="49.49433" lon="5.88794">
        <ele>384.66479</ele>
        <time>2010-01-01T01:02:46Z</time>
      </trkpt>
      <trkpt lat="49.49407" lon="5.88805">
        <ele>387.06799</ele>
        <time>2010-01-01T01:02:56Z</time>
      </trkpt>
      <trkpt lat="49.49382" lon="5.88807">
        <ele>390.43261</ele>
        <time>2010-01-01T01:03:07Z</time>
      </trkpt>
      <trkpt lat="49.49377" lon="5.88801">
        <ele>390.9132</ele>
        <time>2010-01-01T01:03:09Z</time>
      </trkpt>
      <trkpt lat="49.49373" lon="5.88788">
        <ele>388.51</ele>
        <time>2010-01-01T01:03:13Z</time>
      </trkpt>
      <trkpt lat="49.49367" lon="5.88751">
        <ele>388.02929</ele>
        <time>2010-01-01T01:03:23Z</time>
      </trkpt>
      <trkpt lat="49.49362" lon="5.88741">
        <ele>388.02929</ele>
        <time>2010-01-01T01:03:26Z</time>
      </trkpt>
      <trkpt lat="49.49326" lon="5.88726">
        <ele>393.31652</ele>
        <time>2010-01-01T01:03:41Z</time>
      </trkpt>
      <trkpt lat="49.49289" lon="5.88708">
        <ele>394.27795</ele>
        <time>2010-01-01T01:03:56Z</time>
      </trkpt>
      <trkpt lat="49.49274" lon="5.88676">
        <ele>393.31652</ele>
        <time>2010-01-01T01:04:07Z</time>
      </trkpt>
      <trkpt lat="49.49268" lon="5.8864">
        <ele>392.35534</ele>
        <time>2010-01-01T01:04:16Z</time>
      </trkpt>
      <trkpt lat="49.49274" lon="5.88627">
        <ele>394.27795</ele>
        <time>2010-01-01T01:04:21Z</time>
      </trkpt>
      <trkpt lat="49.49287" lon="5.88601">
        <ele>398.12316</ele>
        <time>2010-01-01T01:04:29Z</time>
      </trkpt>
      <trkpt lat="49.49294" lon="5.88593">
        <ele>400.04589</ele>
        <time>2010-01-01T01:04:33Z</time>
      </trkpt>
      <trkpt lat="49.493" lon="5.88575">
        <ele>401.00708</ele>
        <time>2010-01-01T01:04:38Z</time>
      </trkpt>
      <trkpt lat="49.49306" lon="5.88554">
        <ele>403.4104</ele>
        <time>2010-01-01T01:04:44Z</time>
      </trkpt>
      <trkpt lat="49.49304" lon="5.88528">
        <ele>404.85229</ele>
        <time>2010-01-01T01:04:51Z</time>
      </trkpt>
      <trkpt lat="49.49296" lon="5.88498">
        <ele>403.89111</ele>
        <time>2010-01-01T01:04:59Z</time>
      </trkpt>
      <trkpt lat="49.49283" lon="5.88451">
        <ele>405.333</ele>
        <time>2010-01-01T01:05:12Z</time>
      </trkpt>
      <trkpt lat="49.49283" lon="5.88408">
        <ele>408.21704</ele>
        <time>2010-01-01T01:05:24Z</time>
      </trkpt>
      <trkpt lat="49.49285" lon="5.88367">
        <ele>409.17834</ele>
        <time>2010-01-01T01:05:34Z</time>
      </trkpt>
      <trkpt lat="49.49281" lon="5.88331">
        <ele>410.62023</ele>
        <time>2010-01-01T01:05:44Z</time>
      </trkpt>
      <trkpt lat="49.49274" lon="5.88286">
        <ele>412.06225</ele>
        <time>2010-01-01T01:05:56Z</time>
      </trkpt>
      <trkpt lat="49.49266" lon="5.88241">
        <ele>413.02355</ele>
        <time>2010-01-01T01:06:08Z</time>
      </trkpt>
      <trkpt lat="49.49257" lon="5.88202">
        <ele>413.98486</ele>
        <time>2010-01-01T01:06:19Z</time>
      </trkpt>
      <trkpt lat="49.49251" lon="5.88161">
        <ele>415.90747</ele>
        <time>2010-01-01T01:06:30Z</time>
      </trkpt>
      <trkpt lat="49.49246" lon="5.88123">
        <ele>416.38818</ele>
        <time>2010-01-01T01:06:40Z</time>
      </trkpt>
      <trkpt lat="49.49242" lon="5.88101">
        <ele>416.38818</ele>
        <time>2010-01-01T01:06:46Z</time>
      </trkpt>
      <trkpt lat="49.49231" lon="5.88101">
        <ele>416.38818</ele>
        <time>2010-01-01T01:06:50Z</time>
      </trkpt>
      <trkpt lat="49.49229" lon="5.88101">
        <ele>418.31079</ele>
        <time>2010-01-01T01:06:51Z</time>
      </trkpt>
      <trkpt lat="49.49225" lon="5.88101">
        <ele>418.7915</ele>
        <time>2010-01-01T01:06:52Z</time>
      </trkpt>
      <trkpt lat="49.49212" lon="5.88088">
        <ele>418.7915</ele>
        <time>2010-01-01T01:06:59Z</time>
      </trkpt>
      <trkpt lat="49.49206" lon="5.8805">
        <ele>415.90747</ele>
        <time>2010-01-01T01:07:09Z</time>
      </trkpt>
      <trkpt lat="49.49197" lon="5.88009">
        <ele>412.54284</ele>
        <time>2010-01-01T01:07:20Z</time>
      </trkpt>
      <trkpt lat="49.49186" lon="5.87966">
        <ele>412.54284</ele>
        <time>2010-01-01T01:07:32Z</time>
      </trkpt>
      <trkpt lat="49.49171" lon="5.87945">
        <ele>412.54284</ele>
        <time>2010-01-01T01:07:40Z</time>
      </trkpt>
      <trkpt lat="49.49165" lon="5.87936">
        <ele>412.06225</ele>
        <time>2010-01-01T01:07:44Z</time>
      </trkpt>
      <trkpt lat="49.49128" lon="5.87904">
        <ele>415.42687</ele>
        <time>2010-01-01T01:08:01Z</time>
      </trkpt>
      <trkpt lat="49.49107" lon="5.87887">
        <ele>417.3496</ele>
        <time>2010-01-01T01:08:10Z</time>
      </trkpt>
      <trkpt lat="49.49094" lon="5.87895">
        <ele>417.3496</ele>
        <time>2010-01-01T01:08:16Z</time>
      </trkpt>
      <trkpt lat="49.49073" lon="5.87951">
        <ele>416.86889</ele>
        <time>2010-01-01T01:08:33Z</time>
      </trkpt>
      <trkpt lat="49.49066" lon="5.87949">
        <ele>417.3496</ele>
        <time>2010-01-01T01:08:35Z</time>
      </trkpt>
      <trkpt lat="49.49051" lon="5.87938">
        <ele>417.3496</ele>
        <time>2010-01-01T01:08:42Z</time>
      </trkpt>
      <trkpt lat="49.49036" lon="5.87923">
        <ele>418.31079</ele>
        <time>2010-01-01T01:08:49Z</time>
      </trkpt>
      <trkpt lat="49.49021" lon="5.87914">
        <ele>416.86889</ele>
        <time>2010-01-01T01:08:56Z</time>
      </trkpt>
      <trkpt lat="49.49017" lon="5.87906">
        <ele>415.90747</ele>
        <time>2010-01-01T01:08:58Z</time>
      </trkpt>
      <trkpt lat="49.48989" lon="5.87878">
        <ele>417.8302</ele>
        <time>2010-01-01T01:09:12Z</time>
      </trkpt>
      <trkpt lat="49.48961" lon="5.87857">
        <ele>420.71411</ele>
        <time>2010-01-01T01:09:24Z</time>
      </trkpt>
      <trkpt lat="49.48925" lon="5.87826">
        <ele>422.63671</ele>
        <time>2010-01-01T01:09:41Z</time>
      </trkpt>
      <trkpt lat="49.4889" lon="5.87801">
        <ele>423.11743</ele>
        <time>2010-01-01T01:09:56Z</time>
      </trkpt>
      <trkpt lat="49.48869" lon="5.87784">
        <ele>424.07873</ele>
        <time>2010-01-01T01:10:06Z</time>
      </trkpt>
      <trkpt lat="49.48847" lon="5.87764">
        <ele>424.55944</ele>
        <time>2010-01-01T01:10:16Z</time>
      </trkpt>
      <trkpt lat="49.48847" lon="5.87739">
        <ele>424.55944</ele>
        <time>2010-01-01T01:10:22Z</time>
      </trkpt>
      <trkpt lat="49.48849" lon="5.87734">
        <ele>424.55944</ele>
        <time>2010-01-01T01:10:24Z</time>
      </trkpt>
      <trkpt lat="49.48879" lon="5.87668">
        <ele>426.00134</ele>
        <time>2010-01-01T01:10:45Z</time>
      </trkpt>
      <trkpt lat="49.48905" lon="5.87612">
        <ele>423.59802</ele>
        <time>2010-01-01T01:11:03Z</time>
      </trkpt>
      <trkpt lat="49.48912" lon="5.87597">
        <ele>423.11743</ele>
        <time>2010-01-01T01:11:07Z</time>
      </trkpt>
      <trkpt lat="49.48903" lon="5.87588">
        <ele>422.156</ele>
        <time>2010-01-01T01:11:11Z</time>
      </trkpt>
      <trkpt lat="49.48897" lon="5.8759">
        <ele>422.156</ele>
        <time>2010-01-01T01:11:14Z</time>
      </trkpt>
      <trkpt lat="49.48864" lon="5.87599">
        <ele>425.04016</ele>
        <time>2010-01-01T01:11:27Z</time>
      </trkpt>
      <trkpt lat="49.48822" lon="5.87608">
        <ele>427.44335</ele>
        <time>2010-01-01T01:11:44Z</time>
      </trkpt>
      <trkpt lat="49.48785" lon="5.87612">
        <ele>426.96276</ele>
        <time>2010-01-01T01:11:59Z</time>
      </trkpt>
      <trkpt lat="49.4874" lon="5.87616">
        <ele>426.48205</ele>
        <time>2010-01-01T01:12:17Z</time>
      </trkpt>
      <trkpt lat="49.48678" lon="5.87618">
        <ele>424.07873</ele>
        <time>2010-01-01T01:12:42Z</time>
      </trkpt>
      <trkpt lat="49.48611" lon="5.87616">
        <ele>420.71411</ele>
        <time>2010-01-01T01:13:09Z</time>
      </trkpt>
      <trkpt lat="49.48564" lon="5.87616">
        <ele>417.8302</ele>
        <time>2010-01-01T01:13:28Z</time>
      </trkpt>
      <trkpt lat="49.48543" lon="5.87612">
        <ele>416.86889</ele>
        <time>2010-01-01T01:13:36Z</time>
      </trkpt>
      <trkpt lat="49.48543" lon="5.8759">
        <ele>416.86889</ele>
        <time>2010-01-01T01:13:42Z</time>
      </trkpt>
      <trkpt lat="49.48545" lon="5.87584">
        <ele>415.42687</ele>
        <time>2010-01-01T01:13:44Z</time>
      </trkpt>
      <trkpt lat="49.48543" lon="5.87545">
        <ele>414.46545</ele>
        <time>2010-01-01T01:13:54Z</time>
      </trkpt>
      <trkpt lat="49.48558" lon="5.87451">
        <ele>416.38818</ele>
        <time>2010-01-01T01:14:19Z</time>
      </trkpt>
      <trkpt lat="49.48555" lon="5.87453">
        <ele>416.38818</ele>
        <time>2010-01-01T01:14:20Z</time>
      </trkpt>
      <trkpt lat="49.48528" lon="5.87479">
        <ele>415.42687</ele>
        <time>2010-01-01T01:14:33Z</time>
      </trkpt>
      <trkpt lat="49.48498" lon="5.87517">
        <ele>414.94616</ele>
        <time>2010-01-01T01:14:49Z</time>
      </trkpt>
      <trkpt lat="49.48493" lon="5.87524">
        <ele>414.94616</ele>
        <time>2010-01-01T01:14:51Z</time>
      </trkpt>
      <trkpt lat="49.48474" lon="5.8753">
        <ele>414.46545</ele>
        <time>2010-01-01T01:14:59Z</time>
      </trkpt>
      <trkpt lat="49.48452" lon="5.87502">
        <ele>412.54284</ele>
        <time>2010-01-01T01:15:10Z</time>
      </trkpt>
      <trkpt lat="49.48435" lon="5.87485">
        <ele>406.7749</ele>
        <time>2010-01-01T01:15:19Z</time>
      </trkpt>
      <trkpt lat="49.48429" lon="5.87479">
        <ele>406.29431</ele>
        <time>2010-01-01T01:15:22Z</time>
      </trkpt>
      <trkpt lat="49.48414" lon="5.87457">
        <ele>405.81372</ele>
        <time>2010-01-01T01:15:30Z</time>
      </trkpt>
      <trkpt lat="49.48364" lon="5.87393">
        <ele>404.3717</ele>
        <time>2010-01-01T01:15:56Z</time>
      </trkpt>
      <trkpt lat="49.48332" lon="5.87361">
        <ele>404.3717</ele>
        <time>2010-01-01T01:16:11Z</time>
      </trkpt>
      <trkpt lat="49.48294" lon="5.87314">
        <ele>406.29431</ele>
        <time>2010-01-01T01:16:31Z</time>
      </trkpt>
      <trkpt lat="49.48261" lon="5.87275">
        <ele>405.81372</ele>
        <time>2010-01-01T01:16:47Z</time>
      </trkpt>
      <trkpt lat="49.48227" lon="5.87232">
        <ele>406.7749</ele>
        <time>2010-01-01T01:17:05Z</time>
      </trkpt>
      <trkpt lat="49.48182" lon="5.87174">
        <ele>404.3717</ele>
        <time>2010-01-01T01:17:28Z</time>
      </trkpt>
      <trkpt lat="49.48143" lon="5.87127">
        <ele>403.89111</ele>
        <time>2010-01-01T01:17:48Z</time>
      </trkpt>
      <trkpt lat="49.48098" lon="5.8709">
        <ele>402.44909</ele>
        <time>2010-01-01T01:18:08Z</time>
      </trkpt>
      <trkpt lat="49.48098" lon="5.87056">
        <ele>402.92968</ele>
        <time>2010-01-01T01:18:17Z</time>
      </trkpt>
      <trkpt lat="49.48128" lon="5.86923">
        <ele>403.89111</ele>
        <time>2010-01-01T01:18:54Z</time>
      </trkpt>
      <trkpt lat="49.48139" lon="5.86882">
        <ele>403.89111</ele>
        <time>2010-01-01T01:19:05Z</time>
      </trkpt>
      <trkpt lat="49.48182" lon="5.86792">
        <ele>403.89111</ele>
        <time>2010-01-01T01:19:35Z</time>
      </trkpt>
      <trkpt lat="49.48253" lon="5.8644">
        <ele>403.89111</ele>
        <time>2010-01-01T01:21:10Z</time>
      </trkpt>
      <trkpt lat="49.48113" lon="5.86447">
        <ele>399.56506</ele>
        <time>2010-01-01T01:22:06Z</time>
      </trkpt>
      <trkpt lat="49.48116" lon="5.86453">
        <ele>388.51</ele>
        <time>2010-01-01T01:22:08Z</time>
      </trkpt>
      <trkpt lat="49.48118" lon="5.86457">
        <ele>377.45483</ele>
        <time>2010-01-01T01:22:09Z</time>
      </trkpt>
      <trkpt lat="49.4812" lon="5.86515">
        <ele>267.8645</ele>
        <time>2010-01-01T01:22:25Z</time>
      </trkpt>
      <trkpt lat="49.4812" lon="5.86507">
        <ele>328.42761</ele>
        <time>2010-01-01T01:22:27Z</time>
      </trkpt>
      <trkpt lat="49.4812" lon="5.86485">
        <ele>359.67041</ele>
        <time>2010-01-01T01:22:32Z</time>
      </trkpt>
      <trkpt lat="49.4812" lon="5.86479">
        <ele>384.18408</ele>
        <time>2010-01-01T01:22:34Z</time>
      </trkpt>
      <trkpt lat="49.4812" lon="5.86481">
        <ele>359.67041</ele>
        <time>2010-01-01T01:22:35Z</time>
      </trkpt>
      <trkpt lat="49.48131" lon="5.8646">
        <ele>386.10668</ele>
        <time>2010-01-01T01:22:42Z</time>
      </trkpt>
      <trkpt lat="49.48152" lon="5.86541">
        <ele>353.90258</ele>
        <time>2010-01-01T01:23:05Z</time>
      </trkpt>
      <trkpt lat="49.48148" lon="5.86524">
        <ele>366.88024</ele>
        <time>2010-01-01T01:23:09Z</time>
      </trkpt>
      <trkpt lat="49.48139" lon="5.86485">
        <ele>361.59313</ele>
        <time>2010-01-01T01:23:20Z</time>
      </trkpt>
      <trkpt lat="49.48137" lon="5.86477">
        <ele>388.51</ele>
        <time>2010-01-01T01:23:22Z</time>
      </trkpt>
      <trkpt lat="49.48133" lon="5.86449">
        <ele>408.21704</ele>
        <time>2010-01-01T01:23:30Z</time>
      </trkpt>
      <trkpt lat="49.48124" lon="5.86451">
        <ele>397.64245</ele>
        <time>2010-01-01T01:23:33Z</time>
      </trkpt>
      <trkpt lat="49.48122" lon="5.86455">
        <ele>387.06799</ele>
        <time>2010-01-01T01:23:35Z</time>
      </trkpt>
      <trkpt lat="49.48126" lon="5.86453">
        <ele>368.80297</ele>
        <time>2010-01-01T01:23:37Z</time>
      </trkpt>
      <trkpt lat="49.48131" lon="5.86449">
        <ele>366.39953</ele>
        <time>2010-01-01T01:23:39Z</time>
      </trkpt>
      <trkpt lat="49.48124" lon="5.86432">
        <ele>361.59313</ele>
        <time>2010-01-01T01:23:44Z</time>
      </trkpt>
      <trkpt lat="49.48098" lon="5.86408">
        <ele>358.22839</ele>
        <time>2010-01-01T01:23:56Z</time>
      </trkpt>
      <trkpt lat="49.48068" lon="5.86393">
        <ele>354.38317</ele>
        <time>2010-01-01T01:24:08Z</time>
      </trkpt>
      <trkpt lat="49.48043" lon="5.86378">
        <ele>354.38317</ele>
        <time>2010-01-01T01:24:19Z</time>
      </trkpt>
      <trkpt lat="49.4804" lon="5.86367">
        <ele>354.38317</ele>
        <time>2010-01-01T01:24:22Z</time>
      </trkpt>
      <trkpt lat="49.48047" lon="5.86363">
        <ele>354.38317</ele>
        <time>2010-01-01T01:24:25Z</time>
      </trkpt>
      <trkpt lat="49.48086" lon="5.86352">
        <ele>355.82519</ele>
        <time>2010-01-01T01:24:41Z</time>
      </trkpt>
      <trkpt lat="49.48098" lon="5.86363">
        <ele>351.97985</ele>
        <time>2010-01-01T01:24:47Z</time>
      </trkpt>
      <trkpt lat="49.48096" lon="5.86363">
        <ele>351.01843</ele>
        <time>2010-01-01T01:24:48Z</time>
      </trkpt>
      <trkpt lat="49.48094" lon="5.86361">
        <ele>351.49914</ele>
        <time>2010-01-01T01:24:49Z</time>
      </trkpt>
      <trkpt lat="49.48094" lon="5.86365">
        <ele>352.46057</ele>
        <time>2010-01-01T01:24:50Z</time>
      </trkpt>
      <trkpt lat="49.48081" lon="5.86412">
        <ele>350.53784</ele>
        <time>2010-01-01T01:25:03Z</time>
      </trkpt>
      <trkpt lat="49.48081" lon="5.86415">
        <ele>351.49914</ele>
        <time>2010-01-01T01:25:04Z</time>
      </trkpt>
      <trkpt lat="49.48056" lon="5.86425">
        <ele>355.82519</ele>
        <time>2010-01-01T01:25:14Z</time>
      </trkpt>
      <trkpt lat="49.48043" lon="5.86432">
        <ele>355.82519</ele>
        <time>2010-01-01T01:25:20Z</time>
      </trkpt>
      <trkpt lat="49.48028" lon="5.86436">
        <ele>355.82519</ele>
        <time>2010-01-01T01:25:26Z</time>
      </trkpt>
      <trkpt lat="49.47993" lon="5.86438">
        <ele>356.30578</ele>
        <time>2010-01-01T01:25:40Z</time>
      </trkpt>
      <trkpt lat="49.4797" lon="5.8644">
        <ele>352.46057</ele>
        <time>2010-01-01T01:25:49Z</time>
      </trkpt>
      <trkpt lat="49.47968" lon="5.86427">
        <ele>356.78637</ele>
        <time>2010-01-01T01:25:52Z</time>
      </trkpt>
      <trkpt lat="49.4797" lon="5.86402">
        <ele>356.78637</ele>
        <time>2010-01-01T01:25:59Z</time>
      </trkpt>
      <trkpt lat="49.47974" lon="5.8638">
        <ele>356.30578</ele>
        <time>2010-01-01T01:26:05Z</time>
      </trkpt>
      <trkpt lat="49.47953" lon="5.86385">
        <ele>356.30578</ele>
        <time>2010-01-01T01:26:14Z</time>
      </trkpt>
      <trkpt lat="49.47948" lon="5.86382">
        <ele>356.30578</ele>
        <time>2010-01-01T01:26:15Z</time>
      </trkpt>
      <trkpt lat="49.47946" lon="5.86376">
        <ele>356.30578</ele>
        <time>2010-01-01T01:26:17Z</time>
      </trkpt>
      <trkpt lat="49.47493" lon="5.86361">
        <ele>357.26708</ele>
        <time>2010-01-01T01:29:19Z</time>
      </trkpt>
      <trkpt lat="49.47285" lon="5.86629">
        <ele>359.67041</ele>
        <time>2010-01-01T01:31:07Z</time>
      </trkpt>
      <trkpt lat="49.47259" lon="5.86627">
        <ele>361.11242</ele>
        <time>2010-01-01T01:31:18Z</time>
      </trkpt>
      <trkpt lat="49.47251" lon="5.86612">
        <ele>362.55432</ele>
        <time>2010-01-01T01:31:23Z</time>
      </trkpt>
      <trkpt lat="49.47225" lon="5.86586">
        <ele>363.51574</ele>
        <time>2010-01-01T01:31:35Z</time>
      </trkpt>
      <trkpt lat="49.47197" lon="5.86578">
        <ele>372.16748</ele>
        <time>2010-01-01T01:31:47Z</time>
      </trkpt>
      <trkpt lat="49.47197" lon="5.86576">
        <ele>374.5708</ele>
        <time>2010-01-01T01:31:47Z</time>
      </trkpt>
      <trkpt lat="49.47161" lon="5.86552">
        <ele>379.37744</ele>
        <time>2010-01-01T01:32:03Z</time>
      </trkpt>
      <trkpt lat="49.47137" lon="5.86533">
        <ele>387.54858</ele>
        <time>2010-01-01T01:32:14Z</time>
      </trkpt>
      <trkpt lat="49.47126" lon="5.86524">
        <ele>386.5874</ele>
        <time>2010-01-01T01:32:18Z</time>
      </trkpt>
      <trkpt lat="49.47114" lon="5.86503">
        <ele>386.10668</ele>
        <time>2010-01-01T01:32:26Z</time>
      </trkpt>
      <trkpt lat="49.47096" lon="5.86464">
        <ele>390.43261</ele>
        <time>2010-01-01T01:32:38Z</time>
      </trkpt>
      <trkpt lat="49.47077" lon="5.86423">
        <ele>397.64245</ele>
        <time>2010-01-01T01:32:51Z</time>
      </trkpt>
      <trkpt lat="49.47045" lon="5.86387">
        <ele>400.04589</ele>
        <time>2010-01-01T01:33:07Z</time>
      </trkpt>
      <trkpt lat="49.4703" lon="5.86397">
        <ele>401.00708</ele>
        <time>2010-01-01T01:33:14Z</time>
      </trkpt>
      <trkpt lat="49.47013" lon="5.86427">
        <ele>403.89111</ele>
        <time>2010-01-01T01:33:24Z</time>
      </trkpt>
      <trkpt lat="49.46995" lon="5.86462">
        <ele>406.29431</ele>
        <time>2010-01-01T01:33:36Z</time>
      </trkpt>
      <trkpt lat="49.46972" lon="5.86505">
        <ele>405.333</ele>
        <time>2010-01-01T01:33:50Z</time>
      </trkpt>
      <trkpt lat="49.4695" lon="5.86543">
        <ele>405.333</ele>
        <time>2010-01-01T01:34:04Z</time>
      </trkpt>
      <trkpt lat="49.46923" lon="5.86588">
        <ele>406.7749</ele>
        <time>2010-01-01T01:34:20Z</time>
      </trkpt>
      <trkpt lat="49.46877" lon="5.86663">
        <ele>409.65905</ele>
        <time>2010-01-01T01:34:46Z</time>
      </trkpt>
      <trkpt lat="49.46835" lon="5.86764">
        <ele>409.17834</ele>
        <time>2010-01-01T01:35:18Z</time>
      </trkpt>
      <trkpt lat="49.46667" lon="5.86829">
        <ele>412.06225</ele>
        <time>2010-01-01T01:36:27Z</time>
      </trkpt>
      <trkpt lat="49.46641" lon="5.86827">
        <ele>413.02355</ele>
        <time>2010-01-01T01:36:37Z</time>
      </trkpt>
      <trkpt lat="49.46592" lon="5.86812">
        <ele>414.94616</ele>
        <time>2010-01-01T01:36:57Z</time>
      </trkpt>
      <trkpt lat="49.46551" lon="5.86749">
        <ele>409.17834</ele>
        <time>2010-01-01T01:37:20Z</time>
      </trkpt>
      <trkpt lat="49.46515" lon="5.86681">
        <ele>411.58166</ele>
        <time>2010-01-01T01:37:43Z</time>
      </trkpt>
      <trkpt lat="49.46493" lon="5.8664">
        <ele>413.02355</ele>
        <time>2010-01-01T01:37:57Z</time>
      </trkpt>
      <trkpt lat="49.46493" lon="5.86689">
        <ele>412.54284</ele>
        <time>2010-01-01T01:38:10Z</time>
      </trkpt>
      <trkpt lat="49.46498" lon="5.86721">
        <ele>411.58166</ele>
        <time>2010-01-01T01:38:18Z</time>
      </trkpt>
      <trkpt lat="49.46517" lon="5.86822">
        <ele>411.58166</ele>
        <time>2010-01-01T01:38:46Z</time>
      </trkpt>
      <trkpt lat="49.46562" lon="5.87086">
        <ele>411.10095</ele>
        <time>2010-01-01T01:39:57Z</time>
      </trkpt>
      <trkpt lat="49.46691" lon="5.87146">
        <ele>411.10095</ele>
        <time>2010-01-01T01:40:50Z</time>
      </trkpt>
      <trkpt lat="49.46732" lon="5.87183">
        <ele>411.10095</ele>
        <time>2010-01-01T01:41:09Z</time>
      </trkpt>
      <trkpt lat="49.4679" lon="5.87221">
        <ele>411.10095</ele>
        <time>2010-01-01T01:41:35Z</time>
      </trkpt>
      <trkpt lat="49.46897" lon="5.87369">
        <ele>411.10095</ele>
        <time>2010-01-01T01:42:32Z</time>
      </trkpt>
      <trkpt lat="49.46914" lon="5.87406">
        <ele>411.10095</ele>
        <time>2010-01-01T01:42:44Z</time>
      </trkpt>
      <trkpt lat="49.47015" lon="5.87314">
        <ele>411.10095</ele>
        <time>2010-01-01T01:43:31Z</time>
      </trkpt>
      <trkpt lat="49.47038" lon="5.87318">
        <ele>411.10095</ele>
        <time>2010-01-01T01:43:41Z</time>
      </trkpt>
      <trkpt lat="49.47077" lon="5.87316">
        <ele>411.58166</ele>
        <time>2010-01-01T01:43:56Z</time>
      </trkpt>
      <trkpt lat="49.47126" lon="5.87312">
        <ele>406.29431</ele>
        <time>2010-01-01T01:44:16Z</time>
      </trkpt>
      <trkpt lat="49.47141" lon="5.87316">
        <ele>406.29431</ele>
        <time>2010-01-01T01:44:22Z</time>
      </trkpt>
      <trkpt lat="49.47124" lon="5.87327">
        <ele>405.333</ele>
        <time>2010-01-01T01:44:29Z</time>
      </trkpt>
      <trkpt lat="49.47062" lon="5.87372">
        <ele>402.92968</ele>
        <time>2010-01-01T01:44:57Z</time>
      </trkpt>
      <trkpt lat="49.47047" lon="5.87378">
        <ele>402.44909</ele>
        <time>2010-01-01T01:45:03Z</time>
      </trkpt>
      <trkpt lat="49.47002" lon="5.87404">
        <ele>402.92968</ele>
        <time>2010-01-01T01:45:22Z</time>
      </trkpt>
      <trkpt lat="49.47" lon="5.87415">
        <ele>401.48779</ele>
        <time>2010-01-01T01:45:25Z</time>
      </trkpt>
      <trkpt lat="49.47015" lon="5.87419">
        <ele>402.92968</ele>
        <time>2010-01-01T01:45:31Z</time>
      </trkpt>
      <trkpt lat="49.47096" lon="5.87417">
        <ele>407.73632</ele>
        <time>2010-01-01T01:46:04Z</time>
      </trkpt>
      <trkpt lat="49.47111" lon="5.8743">
        <ele>407.25561</ele>
        <time>2010-01-01T01:46:11Z</time>
      </trkpt>
      <trkpt lat="49.47122" lon="5.87475">
        <ele>406.7749</ele>
        <time>2010-01-01T01:46:23Z</time>
      </trkpt>
      <trkpt lat="49.47107" lon="5.8767">
        <ele>406.29431</ele>
        <time>2010-01-01T01:47:15Z</time>
      </trkpt>
      <trkpt lat="49.47126" lon="5.87736">
        <ele>405.81372</ele>
        <time>2010-01-01T01:47:33Z</time>
      </trkpt>
      <trkpt lat="49.47139" lon="5.87754">
        <ele>405.81372</ele>
        <time>2010-01-01T01:47:40Z</time>
      </trkpt>
      <trkpt lat="49.47161" lon="5.87696">
        <ele>405.81372</ele>
        <time>2010-01-01T01:47:58Z</time>
      </trkpt>
      <trkpt lat="49.47176" lon="5.87661">
        <ele>405.333</ele>
        <time>2010-01-01T01:48:08Z</time>
      </trkpt>
      <trkpt lat="49.47191" lon="5.87612">
        <ele>403.4104</ele>
        <time>2010-01-01T01:48:23Z</time>
      </trkpt>
      <trkpt lat="49.47204" lon="5.87586">
        <ele>403.4104</ele>
        <time>2010-01-01T01:48:31Z</time>
      </trkpt>
      <trkpt lat="49.47225" lon="5.87571">
        <ele>399.56506</ele>
        <time>2010-01-01T01:48:40Z</time>
      </trkpt>
      <trkpt lat="49.47247" lon="5.8756">
        <ele>398.60375</ele>
        <time>2010-01-01T01:48:49Z</time>
      </trkpt>
      <trkpt lat="49.47277" lon="5.87556">
        <ele>398.60375</ele>
        <time>2010-01-01T01:49:02Z</time>
      </trkpt>
      <trkpt lat="49.47352" lon="5.8761">
        <ele>401.00708</ele>
        <time>2010-01-01T01:49:35Z</time>
      </trkpt>
      <trkpt lat="49.4736" lon="5.87614">
        <ele>402.44909</ele>
        <time>2010-01-01T01:49:38Z</time>
      </trkpt>
      <trkpt lat="49.4738" lon="5.8764">
        <ele>403.4104</ele>
        <time>2010-01-01T01:49:49Z</time>
      </trkpt>
      <trkpt lat="49.4741" lon="5.87676">
        <ele>403.4104</ele>
        <time>2010-01-01T01:50:04Z</time>
      </trkpt>
      <trkpt lat="49.47457" lon="5.87844">
        <ele>405.333</ele>
        <time>2010-01-01T01:50:51Z</time>
      </trkpt>
      <trkpt lat="49.47495" lon="5.87921">
        <ele>406.29431</ele>
        <time>2010-01-01T01:51:17Z</time>
      </trkpt>
      <trkpt lat="49.47541" lon="5.88022">
        <ele>411.58166</ele>
        <time>2010-01-01T01:51:49Z</time>
      </trkpt>
      <trkpt lat="49.47551" lon="5.88086">
        <ele>415.42687</ele>
        <time>2010-01-01T01:52:06Z</time>
      </trkpt>
      <trkpt lat="49.47549" lon="5.8809">
        <ele>415.42687</ele>
        <time>2010-01-01T01:52:07Z</time>
      </trkpt>
      <trkpt lat="49.47532" lon="5.88114">
        <ele>414.94616</ele>
        <time>2010-01-01T01:52:16Z</time>
      </trkpt>
      <trkpt lat="49.47521" lon="5.88133">
        <ele>414.46545</ele>
        <time>2010-01-01T01:52:23Z</time>
      </trkpt>
      <trkpt lat="49.47513" lon="5.88163">
        <ele>415.90747</ele>
        <time>2010-01-01T01:52:32Z</time>
      </trkpt>
      <trkpt lat="49.47502" lon="5.88226">
        <ele>415.90747</ele>
        <time>2010-01-01T01:52:48Z</time>
      </trkpt>
      <trkpt lat="49.47504" lon="5.88275">
        <ele>419.27221</ele>
        <time>2010-01-01T01:53:01Z</time>
      </trkpt>
      <trkpt lat="49.47489" lon="5.88326">
        <ele>419.27221</ele>
        <time>2010-01-01T01:53:16Z</time>
      </trkpt>
      <trkpt lat="49.47457" lon="5.88389">
        <ele>423.59802</ele>
        <time>2010-01-01T01:53:37Z</time>
      </trkpt>
      <trkpt lat="49.47431" lon="5.88436">
        <ele>424.07873</ele>
        <time>2010-01-01T01:53:53Z</time>
      </trkpt>
      <trkpt lat="49.47326" lon="5.88466">
        <ele>422.63671</ele>
        <time>2010-01-01T01:54:35Z</time>
      </trkpt>
      <trkpt lat="49.47298" lon="5.88483">
        <ele>420.23339</ele>
        <time>2010-01-01T01:54:47Z</time>
      </trkpt>
      <trkpt lat="49.47277" lon="5.88498">
        <ele>419.27221</ele>
        <time>2010-01-01T01:54:57Z</time>
      </trkpt>
      <trkpt lat="49.47236" lon="5.88498">
        <ele>418.7915</ele>
        <time>2010-01-01T01:55:13Z</time>
      </trkpt>
      <trkpt lat="49.47227" lon="5.88494">
        <ele>418.31079</ele>
        <time>2010-01-01T01:55:17Z</time>
      </trkpt>
      <trkpt lat="49.47208" lon="5.88477">
        <ele>417.8302</ele>
        <time>2010-01-01T01:55:26Z</time>
      </trkpt>
      <trkpt lat="49.47193" lon="5.88477">
        <ele>417.8302</ele>
        <time>2010-01-01T01:55:32Z</time>
      </trkpt>
      <trkpt lat="49.47182" lon="5.88485">
        <ele>417.8302</ele>
        <time>2010-01-01T01:55:37Z</time>
      </trkpt>
      <trkpt lat="49.47171" lon="5.88494">
        <ele>416.86889</ele>
        <time>2010-01-01T01:55:41Z</time>
      </trkpt>
      <trkpt lat="49.47148" lon="5.88498">
        <ele>417.8302</ele>
        <time>2010-01-01T01:55:51Z</time>
      </trkpt>
      <trkpt lat="49.47103" lon="5.88487">
        <ele>418.7915</ele>
        <time>2010-01-01T01:56:09Z</time>
      </trkpt>
      <trkpt lat="49.47058" lon="5.88481">
        <ele>419.27221</ele>
        <time>2010-01-01T01:56:27Z</time>
      </trkpt>
      <trkpt lat="49.47" lon="5.8847">
        <ele>413.50427</ele>
        <time>2010-01-01T01:56:51Z</time>
      </trkpt>
      <trkpt lat="49.4694" lon="5.88453">
        <ele>409.65905</ele>
        <time>2010-01-01T01:57:15Z</time>
      </trkpt>
      <trkpt lat="49.46882" lon="5.88434">
        <ele>408.21704</ele>
        <time>2010-01-01T01:57:39Z</time>
      </trkpt>
      <trkpt lat="49.46837" lon="5.88419">
        <ele>408.21704</ele>
        <time>2010-01-01T01:57:57Z</time>
      </trkpt>
      <trkpt lat="49.46796" lon="5.88406">
        <ele>409.17834</ele>
        <time>2010-01-01T01:58:14Z</time>
      </trkpt>
      <trkpt lat="49.46755" lon="5.88391">
        <ele>410.62023</ele>
        <time>2010-01-01T01:58:31Z</time>
      </trkpt>
      <trkpt lat="49.46714" lon="5.8838">
        <ele>412.54284</ele>
        <time>2010-01-01T01:58:47Z</time>
      </trkpt>
      <trkpt lat="49.46678" lon="5.88374">
        <ele>413.50427</ele>
        <time>2010-01-01T01:59:02Z</time>
      </trkpt>
      <trkpt lat="49.46635" lon="5.88367">
        <ele>416.38818</ele>
        <time>2010-01-01T01:59:19Z</time>
      </trkpt>
      <trkpt lat="49.46594" lon="5.88363">
        <ele>417.8302</ele>
        <time>2010-01-01T01:59:36Z</time>
      </trkpt>
      <trkpt lat="49.46556" lon="5.88356">
        <ele>417.3496</ele>
        <time>2010-01-01T01:59:51Z</time>
      </trkpt>
      <trkpt lat="49.465" lon="5.88354">
        <ele>416.86889</ele>
        <time>2010-01-01T02:00:14Z</time>
      </trkpt>
      <trkpt lat="49.46455" lon="5.88352">
        <ele>417.3496</ele>
        <time>2010-01-01T02:00:32Z</time>
      </trkpt>
      <trkpt lat="49.46414" lon="5.88352">
        <ele>415.42687</ele>
        <time>2010-01-01T02:00:48Z</time>
      </trkpt>
      <trkpt lat="49.46375" lon="5.88352">
        <ele>413.50427</ele>
        <time>2010-01-01T02:01:03Z</time>
      </trkpt>
      <trkpt lat="49.46363" lon="5.88374">
        <ele>412.54284</ele>
        <time>2010-01-01T02:01:11Z</time>
      </trkpt>
      <trkpt lat="49.4636" lon="5.88382">
        <ele>412.06225</ele>
        <time>2010-01-01T02:01:13Z</time>
      </trkpt>
      <trkpt lat="49.46358" lon="5.88406">
        <ele>412.06225</ele>
        <time>2010-01-01T02:01:20Z</time>
      </trkpt>
      <trkpt lat="49.46363" lon="5.8849">
        <ele>412.54284</ele>
        <time>2010-01-01T02:01:41Z</time>
      </trkpt>
      <trkpt lat="49.46363" lon="5.88515">
        <ele>412.06225</ele>
        <time>2010-01-01T02:01:48Z</time>
      </trkpt>
      <trkpt lat="49.4635" lon="5.88565">
        <ele>410.62023</ele>
        <time>2010-01-01T02:02:02Z</time>
      </trkpt>
      <trkpt lat="49.46326" lon="5.88578">
        <ele>408.69763</ele>
        <time>2010-01-01T02:02:12Z</time>
      </trkpt>
      <trkpt lat="49.4632" lon="5.88578">
        <ele>408.21704</ele>
        <time>2010-01-01T02:02:14Z</time>
      </trkpt>
      <trkpt lat="49.4627" lon="5.88586">
        <ele>406.7749</ele>
        <time>2010-01-01T02:02:34Z</time>
      </trkpt>
      <trkpt lat="49.46266" lon="5.88586">
        <ele>406.7749</ele>
        <time>2010-01-01T02:02:36Z</time>
      </trkpt>
      <trkpt lat="49.46244" lon="5.88575">
        <ele>407.25561</ele>
        <time>2010-01-01T02:02:45Z</time>
      </trkpt>
      <trkpt lat="49.46234" lon="5.88593">
        <ele>407.25561</ele>
        <time>2010-01-01T02:02:51Z</time>
      </trkpt>
      <trkpt lat="49.46214" lon="5.88599">
        <ele>407.25561</ele>
        <time>2010-01-01T02:02:59Z</time>
      </trkpt>
      <trkpt lat="49.46199" lon="5.88597">
        <ele>408.21704</ele>
        <time>2010-01-01T02:03:05Z</time>
      </trkpt>
      <trkpt lat="49.46187" lon="5.88595">
        <ele>408.21704</ele>
        <time>2010-01-01T02:03:10Z</time>
      </trkpt>
      <trkpt lat="49.46167" lon="5.88629">
        <ele>407.73632</ele>
        <time>2010-01-01T02:03:22Z</time>
      </trkpt>
      <trkpt lat="49.46161" lon="5.88659">
        <ele>409.17834</ele>
        <time>2010-01-01T02:03:30Z</time>
      </trkpt>
      <trkpt lat="49.46154" lon="5.88708">
        <ele>410.62023</ele>
        <time>2010-01-01T02:03:44Z</time>
      </trkpt>
      <trkpt lat="49.46152" lon="5.8876">
        <ele>412.54284</ele>
        <time>2010-01-01T02:03:57Z</time>
      </trkpt>
      <trkpt lat="49.46154" lon="5.88818">
        <ele>412.54284</ele>
        <time>2010-01-01T02:04:12Z</time>
      </trkpt>
      <trkpt lat="49.46154" lon="5.88882">
        <ele>412.54284</ele>
        <time>2010-01-01T02:04:29Z</time>
      </trkpt>
      <trkpt lat="49.46152" lon="5.88944">
        <ele>412.06225</ele>
        <time>2010-01-01T02:04:45Z</time>
      </trkpt>
      <trkpt lat="49.46152" lon="5.88992">
        <ele>412.06225</ele>
        <time>2010-01-01T02:04:57Z</time>
      </trkpt>
      <trkpt lat="49.46152" lon="5.89017">
        <ele>412.54284</ele>
        <time>2010-01-01T02:05:04Z</time>
      </trkpt>
      <trkpt lat="49.46161" lon="5.89084">
        <ele>413.02355</ele>
        <time>2010-01-01T02:05:22Z</time>
      </trkpt>
      <trkpt lat="49.46165" lon="5.89108">
        <ele>413.02355</ele>
        <time>2010-01-01T02:05:28Z</time>
      </trkpt>
      <trkpt lat="49.46176" lon="5.89161">
        <ele>414.46545</ele>
        <time>2010-01-01T02:05:43Z</time>
      </trkpt>
      <trkpt lat="49.46182" lon="5.89208">
        <ele>414.94616</ele>
        <time>2010-01-01T02:05:55Z</time>
      </trkpt>
      <trkpt lat="49.46189" lon="5.89268">
        <ele>416.86889</ele>
        <time>2010-01-01T02:06:11Z</time>
      </trkpt>
      <trkpt lat="49.46193" lon="5.89337">
        <ele>418.31079</ele>
        <time>2010-01-01T02:06:29Z</time>
      </trkpt>
      <trkpt lat="49.46197" lon="5.89404">
        <ele>419.27221</ele>
        <time>2010-01-01T02:06:46Z</time>
      </trkpt>
      <trkpt lat="49.46199" lon="5.89468">
        <ele>419.7528</ele>
        <time>2010-01-01T02:07:03Z</time>
      </trkpt>
      <trkpt lat="49.46202" lon="5.89539">
        <ele>420.23339</ele>
        <time>2010-01-01T02:07:22Z</time>
      </trkpt>
      <trkpt lat="49.46204" lon="5.89558">
        <ele>419.7528</ele>
        <time>2010-01-01T02:07:27Z</time>
      </trkpt>
      <trkpt lat="49.46208" lon="5.89633">
        <ele>420.23339</ele>
        <time>2010-01-01T02:07:46Z</time>
      </trkpt>
      <trkpt lat="49.46217" lon="5.89685">
        <ele>421.19482</ele>
        <time>2010-01-01T02:08:00Z</time>
      </trkpt>
      <trkpt lat="49.46236" lon="5.89747">
        <ele>421.19482</ele>
        <time>2010-01-01T02:08:18Z</time>
      </trkpt>
      <trkpt lat="49.46264" lon="5.89822">
        <ele>420.71411</ele>
        <time>2010-01-01T02:08:41Z</time>
      </trkpt>
      <trkpt lat="49.46279" lon="5.89856">
        <ele>419.7528</ele>
        <time>2010-01-01T02:08:51Z</time>
      </trkpt>
      <trkpt lat="49.46287" lon="5.89871">
        <ele>418.31079</ele>
        <time>2010-01-01T02:08:57Z</time>
      </trkpt>
      <trkpt lat="49.46322" lon="5.89914">
        <ele>416.86889</ele>
        <time>2010-01-01T02:09:14Z</time>
      </trkpt>
      <trkpt lat="49.4633" lon="5.89927">
        <ele>416.38818</ele>
        <time>2010-01-01T02:09:19Z</time>
      </trkpt>
      <trkpt lat="49.46365" lon="5.89977">
        <ele>414.94616</ele>
        <time>2010-01-01T02:09:38Z</time>
      </trkpt>
      <trkpt lat="49.46412" lon="5.9003">
        <ele>414.94616</ele>
        <time>2010-01-01T02:10:01Z</time>
      </trkpt>
      <trkpt lat="49.46491" lon="5.9012">
        <ele>414.46545</ele>
        <time>2010-01-01T02:10:41Z</time>
      </trkpt>
    </trkseg>
  </trk>
  <rte>
    <name><![CDATA[Audun-le-Tiche à Pl Du Chateau]]></name>
      <rtept lat="49.46816" lon="5.95449">
        <ele>310.44140625</ele>
        <name><![CDATA[Audun-le-Tiche]]></name>
        <desc><![CDATA[Audun-le-Tiche]]></desc>
        <cmt><![CDATA[Audun-le-Tiche]]></cmt>
      </rtept>
      <rtept lat="49.46811" lon="5.95432">
        <ele>310.8359375</ele>
        <name><![CDATA[Ave Paul Roef1]]></name>
        <desc><![CDATA[Ave Paul Roef]]></desc>
        <cmt><![CDATA[Ave Paul Roef]]></cmt>
      </rtept>
      <rtept lat="49.46166" lon="5.89535">
        <ele>420.76953125</ele>
        <name><![CDATA[Terre1]]></name>
        <desc><![CDATA[Terre]]></desc>
        <cmt><![CDATA[Terre]]></cmt>
      </rtept>
      <rtept lat="49.46274" lon="5.89899">
        <ele>420.171875</ele>
        <name><![CDATA[Terre]]></name>
        <desc><![CDATA[Terre]]></desc>
        <cmt><![CDATA[Terre]]></cmt>
      </rtept>
      <rtept lat="49.46582" lon="5.90345">
        <ele>407.51953125</ele>
        <name><![CDATA[Allée]]></name>
        <desc><![CDATA[Allée]]></desc>
        <cmt><![CDATA[Allée]]></cmt>
      </rtept>
      <rtept lat="49.4649" lon="5.90121">
        <ele>409.87890625</ele>
        <name><![CDATA[Route et Chemin]]></name>
        <desc><![CDATA[Route et Chemin]]></desc>
        <cmt><![CDATA[Route et Chemin]]></cmt>
      </rtept>
      <rtept lat="49.46554" lon="5.90213">
        <ele>406.64453125</ele>
        <name><![CDATA[Route et Rue Du Stock et Allée]]></name>
        <desc><![CDATA[Route et Rue Du Stock et Allée]]></desc>
        <cmt><![CDATA[Route et Rue Du Stock et Allée]]></cmt>
      </rtept>
      <rtept lat="49.46611" lon="5.90295">
        <ele>403.1875</ele>
        <name><![CDATA[Route]]></name>
        <desc><![CDATA[Route]]></desc>
        <cmt><![CDATA[Route]]></cmt>
      </rtept>
      <rtept lat="49.46681" lon="5.90368">
        <ele>398.07421875</ele>
        <name><![CDATA[Route1]]></name>
        <desc><![CDATA[Route]]></desc>
        <cmt><![CDATA[Route]]></cmt>
      </rtept>
      <rtept lat="49.46725" lon="5.90379">
        <ele>393.1171875</ele>
        <name><![CDATA[Rue Sainte-Barbe et Rue Ambroise Croizat et Route]]></name>
        <desc><![CDATA[Rue Sainte-Barbe et Rue Ambroise Croizat et Route]]></desc>
        <cmt><![CDATA[Rue Sainte-Barbe et Rue Ambroise Croizat et Route]]></cmt>
      </rtept>
      <rtept lat="49.46775" lon="5.90436">
        <ele>392.484375</ele>
        <name><![CDATA[Rue Ambroise Croizat]]></name>
        <desc><![CDATA[Rue Ambroise Croizat]]></desc>
        <cmt><![CDATA[Rue Ambroise Croizat]]></cmt>
      </rtept>
      <rtept lat="49.46871" lon="5.90568">
        <ele>384.13671875</ele>
        <name><![CDATA[Rue Ambroise Croizat1]]></name>
        <desc><![CDATA[Rue Ambroise Croizat]]></desc>
        <cmt><![CDATA[Rue Ambroise Croizat]]></cmt>
      </rtept>
      <rtept lat="49.46964" lon="5.90689">
        <ele>375.40234375</ele>
        <name><![CDATA[Rue Ambroise Croizat2]]></name>
        <desc><![CDATA[Rue Ambroise Croizat]]></desc>
        <cmt><![CDATA[Rue Ambroise Croizat]]></cmt>
      </rtept>
      <rtept lat="49.47094" lon="5.90884">
        <ele>365.7578125</ele>
        <name><![CDATA[Rue Ambroise Croizat3]]></name>
        <desc><![CDATA[Rue Ambroise Croizat]]></desc>
        <cmt><![CDATA[Rue Ambroise Croizat]]></cmt>
      </rtept>
      <rtept lat="49.47153" lon="5.91055">
        <ele>356.55859375</ele>
        <name><![CDATA[Rue Ambroise Croizat4]]></name>
        <desc><![CDATA[Rue Ambroise Croizat]]></desc>
        <cmt><![CDATA[Rue Ambroise Croizat]]></cmt>
      </rtept>
      <rtept lat="49.47148" lon="5.91161">
        <ele>351.99609375</ele>
        <name><![CDATA[Rue Paul Langevin et Rue Ambroise Croizat]]></name>
        <desc><![CDATA[Rue Paul Langevin et Rue Ambroise Croizat]]></desc>
        <cmt><![CDATA[Rue Paul Langevin et Rue Ambroise Croizat]]></cmt>
      </rtept>
      <rtept lat="49.46998" lon="5.9142">
        <ele>350.609375</ele>
        <name><![CDATA[Rue Paul Langevin]]></name>
        <desc><![CDATA[Rue Paul Langevin]]></desc>
        <cmt><![CDATA[Rue Paul Langevin]]></cmt>
      </rtept>
      <rtept lat="49.46934" lon="5.91551">
        <ele>347.65625</ele>
        <name><![CDATA[Rue Gambetta]]></name>
        <desc><![CDATA[Rue Gambetta]]></desc>
        <cmt><![CDATA[Rue Gambetta]]></cmt>
      </rtept>
      <rtept lat="49.46965" lon="5.92129">
        <ele>338.34765625</ele>
        <name><![CDATA[Rue Gambetta1]]></name>
        <desc><![CDATA[Rue Gambetta]]></desc>
        <cmt><![CDATA[Rue Gambetta]]></cmt>
      </rtept>
      <rtept lat="49.47025" lon="5.92533">
        <ele>329.41015625</ele>
        <name><![CDATA[Rue Gambetta2]]></name>
        <desc><![CDATA[Rue Gambetta]]></desc>
        <cmt><![CDATA[Rue Gambetta]]></cmt>
      </rtept>
      <rtept lat="49.47009" lon="5.92833">
        <ele>324.75390625</ele>
        <name><![CDATA[Rue Albert Lebrun et Rue Du Marechal Foch et Rue Gambetta]]></name>
        <desc><![CDATA[Rue Albert Lebrun et Rue Du Marechal Foch et Rue Gambetta]]></desc>
        <cmt><![CDATA[Rue Albert Lebrun et Rue Du Marechal Foch et Rue Gambetta]]></cmt>
      </rtept>
      <rtept lat="49.47143" lon="5.93136">
        <ele>320.4296875</ele>
        <name><![CDATA[Rue Albert Lebrun]]></name>
        <desc><![CDATA[Rue Albert Lebrun]]></desc>
        <cmt><![CDATA[Rue Albert Lebrun]]></cmt>
      </rtept>
      <rtept lat="49.47282" lon="5.93383">
        <ele>327.125</ele>
        <name><![CDATA[Rte D'Audun]]></name>
        <desc><![CDATA[Rte D'Audun]]></desc>
        <cmt><![CDATA[Rte D'Audun]]></cmt>
      </rtept>
      <rtept lat="49.47454" lon="5.93802">
        <ele>319.65625</ele>
        <name><![CDATA[Ave Salvador Allende]]></name>
        <desc><![CDATA[Ave Salvador Allende]]></desc>
        <cmt><![CDATA[Ave Salvador Allende]]></cmt>
      </rtept>
      <rtept lat="49.47491" lon="5.9408">
        <ele>315.4453125</ele>
        <name><![CDATA[Ave Salvador Allende1]]></name>
        <desc><![CDATA[Ave Salvador Allende]]></desc>
        <cmt><![CDATA[Ave Salvador Allende]]></cmt>
      </rtept>
      <rtept lat="49.47521" lon="5.9435">
        <ele>320.91015625</ele>
        <name><![CDATA[Ave Salvador Allende2]]></name>
        <desc><![CDATA[Ave Salvador Allende]]></desc>
        <cmt><![CDATA[Ave Salvador Allende]]></cmt>
      </rtept>
      <rtept lat="49.47551" lon="5.94652">
        <ele>318.1328125</ele>
        <name><![CDATA[Ave Salvador Allende3]]></name>
        <desc><![CDATA[Ave Salvador Allende]]></desc>
        <cmt><![CDATA[Ave Salvador Allende]]></cmt>
      </rtept>
      <rtept lat="49.47514" lon="5.94952">
        <ele>316.640625</ele>
        <name><![CDATA[Ave Salvador Allende et Rue Georges Clemenceau et Rue Du Moulin et Chemin de la Dell]]></name>
        <desc><![CDATA[Ave Salvador Allende et Rue Georges Clemenceau et Rue Du Moulin et Chemin de la Dell]]></desc>
        <cmt><![CDATA[Ave Salvador Allende et Rue Georges Clemenceau et Rue Du Moulin et Chemin de la Dell]]></cmt>
      </rtept>
      <rtept lat="49.47338" lon="5.94959">
        <ele>316.6875</ele>
        <name><![CDATA[Rue Georges Clemenceau]]></name>
        <desc><![CDATA[Rue Georges Clemenceau]]></desc>
        <cmt><![CDATA[Rue Georges Clemenceau]]></cmt>
      </rtept>
      <rtept lat="49.4722" lon="5.95078">
        <ele>317.33984375</ele>
        <name><![CDATA[Rue Georges Clemenceau1]]></name>
        <desc><![CDATA[Rue Georges Clemenceau]]></desc>
        <cmt><![CDATA[Rue Georges Clemenceau]]></cmt>
      </rtept>
      <rtept lat="49.4713" lon="5.95183">
        <ele>317.31640625</ele>
        <name><![CDATA[Rue Georges Clemenceau2]]></name>
        <desc><![CDATA[Rue Georges Clemenceau]]></desc>
        <cmt><![CDATA[Rue Georges Clemenceau]]></cmt>
      </rtept>
      <rtept lat="49.47114" lon="5.95304">
        <ele>312.2734375</ele>
        <name><![CDATA[Rue Georges Clemenceau et Ave Paul Roef]]></name>
        <desc><![CDATA[Rue Georges Clemenceau et Ave Paul Roef]]></desc>
        <cmt><![CDATA[Rue Georges Clemenceau et Ave Paul Roef]]></cmt>
      </rtept>
      <rtept lat="49.46915" lon="5.95379">
        <ele>311.3984375</ele>
        <name><![CDATA[Ave Paul Roef]]></name>
        <desc><![CDATA[Ave Paul Roef]]></desc>
        <cmt><![CDATA[Ave Paul Roef]]></cmt>
      </rtept>
      <rtept lat="49.46811" lon="5.95432">
        <ele>310.8359375</ele>
        <name><![CDATA[Ave Paul Roef1]]></name>
        <desc><![CDATA[Ave Paul Roef]]></desc>
        <cmt><![CDATA[Ave Paul Roef]]></cmt>
      </rtept>
      <rtept lat="49.46694" lon="5.955">
        <ele>313.33984375</ele>
        <name><![CDATA[Pl Du Chateau]]></name>
        <desc><![CDATA[Pl Du Chateau]]></desc>
        <cmt><![CDATA[Pl Du Chateau]]></cmt>
      </rtept>
    </rte>
</gpx>